Observation data for Boys Ranch on 02/15/2017      Previous  Date  Next       Current Mesonet Observations  Soil Data  Daily Summary Page  Observations in Plain Language
KBY1 150600Z 28004KT M01/M05 A3023 RMK A01 T10101048  RH  075%=      5-min Rain = 0
KBY1 150601Z 27004KT M01/M05 A3023 RMK A01 T10101048  RH  075%=      5-min Rain = 0
KBY1 150602Z 28004KT M01/M05 A3023 RMK A01 T10091048  RH  075%=      5-min Rain = 0
KBY1 150603Z 27004KT M01/M05 A3023 RMK A01 T10101048  RH  075%=      5-min Rain = 0
KBY1 150604Z 28004KT M01/M05 A3023 RMK A01 T10111048  RH  076%=      5-min Rain = 0
KBY1 150605Z 27004KT M01/M05 A3023 RMK A01 T10121049  RH  076%=      5-min Rain = 0
KBY1 150606Z 27004KT M01/M05 A3023 RMK A01 T10121048  RH  076%=      5-min Rain = 0
KBY1 150607Z 28003KT M01/M05 A3023 RMK A01 T10121048  RH  076%=      5-min Rain = 0
KBY1 150608Z 27003KT M01/M05 A3023 RMK A01 T10131048  RH  077%=      5-min Rain = 0
KBY1 150609Z 27003KT M01/M05 A3023 RMK A01 T10131048  RH  077%=      5-min Rain = 0
KBY1 150610Z 27004KT M01/M05 A3023 RMK A01 T10131048  RH  077%=      5-min Rain = 0
KBY1 150611Z 27003KT M01/M05 A3023 RMK A01 T10131049  RH  077%=      5-min Rain = 0
KBY1 150612Z 26002KT M01/M05 A3023 RMK A01 T10131049  RH  077%=      5-min Rain = 0
KBY1 150613Z 27003KT M01/M05 A3023 RMK A01 T10131048  RH  077%=      5-min Rain = 0
KBY1 150614Z 28002KT M01/M05 A3023 RMK A01 T10131048  RH  077%=      5-min Rain = 0
KBY1 150615Z 27003KT M01/M05 A3023 RMK A01 T10141049  RH  077%=      5-min Rain = 0
KBY1 150616Z 27004KT M01/M05 A3023 RMK A01 T10141049  RH  077%=      5-min Rain = 0
KBY1 150617Z 28003KT M01/M05 A3023 RMK A01 T10141049  RH  077%=      5-min Rain = 0
KBY1 150618Z 28003KT M01/M05 A3023 RMK A01 T10141049  RH  077%=      5-min Rain = 0
KBY1 150619Z 28004KT M02/M05 A3023 RMK A01 T10151049  RH  077%=      5-min Rain = 0
KBY1 150620Z 28004KT M02/M05 A3023 RMK A01 T10151049  RH  078%=      5-min Rain = 0
KBY1 150621Z 27004KT M02/M05 A3023 RMK A01 T10151049  RH  078%=      5-min Rain = 0
KBY1 150622Z 27004KT M02/M05 A3023 RMK A01 T10151049  RH  078%=      5-min Rain = 0
KBY1 150623Z 28004KT M01/M05 A3023 RMK A01 T10141049  RH  077%=      5-min Rain = 0
KBY1 150624Z 28004KT M01/M05 A3023 RMK A01 T10131049  RH  077%=      5-min Rain = 0
KBY1 150625Z 28004KT M01/M05 A3023 RMK A01 T10131049  RH  077%=      5-min Rain = 0
KBY1 150626Z 28005KT M01/M05 A3023 RMK A01 T10131049  RH  076%=      5-min Rain = 0
KBY1 150627Z 28005KT M01/M05 A3023 RMK A01 T10131049  RH  076%=      5-min Rain = 0
KBY1 150628Z 27005KT M01/M05 A3023 RMK A01 T10131048  RH  077%=      5-min Rain = 0
KBY1 150629Z 28006KT M01/M05 A3023 RMK A01 T10131049  RH  077%=      5-min Rain = 0
KBY1 150630Z 29005KT M01/M05 A3024 RMK A01 T10131049  RH  077%=      5-min Rain = 0
KBY1 150631Z 28006KT M01/M05 A3024 RMK A01 T10131049  RH  077%=      5-min Rain = 0
KBY1 150632Z 28005KT M01/M05 A3024 RMK A01 T10121049  RH  076%=      5-min Rain = 0
KBY1 150633Z 29006KT M01/M05 A3024 RMK A01 T10121049  RH  076%=      5-min Rain = 0
KBY1 150634Z 29005KT M01/M05 A3024 RMK A01 T10121049  RH  076%=      5-min Rain = 0
KBY1 150635Z 28003KT M01/M05 A3024 RMK A01 T10121049  RH  076%=      5-min Rain = 0
KBY1 150636Z 27004KT M01/M05 A3024 RMK A01 T10121049  RH  076%=      5-min Rain = 0
KBY1 150637Z 28004KT M01/M05 A3024 RMK A01 T10121049  RH  076%=      5-min Rain = 0
KBY1 150638Z 28005KT M01/M05 A3024 RMK A01 T10121049  RH  076%=      5-min Rain = 0
KBY1 150639Z 29005KT M01/M05 A3024 RMK A01 T10111049  RH  075%=      5-min Rain = 0
KBY1 150640Z 28004KT M01/M05 A3024 RMK A01 T10121050  RH  075%=      5-min Rain = 0
KBY1 150641Z 27005KT M01/M05 A3024 RMK A01 T10121050  RH  075%=      5-min Rain = 0
KBY1 150642Z 28004KT M01/M05 A3024 RMK A01 T10121050  RH  075%=      5-min Rain = 0
KBY1 150643Z 28005KT M01/M05 A3023 RMK A01 T10121050  RH  076%=      5-min Rain = 0
KBY1 150644Z 28004KT M01/M05 A3023 RMK A01 T10121050  RH  076%=      5-min Rain = 0
KBY1 150645Z 29005KT M01/M05 A3024 RMK A01 T10121050  RH  076%=      5-min Rain = 0
KBY1 150646Z 28006KT M01/M05 A3024 RMK A01 T10121049  RH  076%=      5-min Rain = 0
KBY1 150647Z 29006KT M01/M05 A3024 RMK A01 T10121049  RH  076%=      5-min Rain = 0
KBY1 150648Z 29006KT M01/M05 A3024 RMK A01 T10121049  RH  076%=      5-min Rain = 0
KBY1 150649Z 29005KT M01/M05 A3024 RMK A01 T10131050  RH  076%=      5-min Rain = 0
KBY1 150650Z 29004KT M01/M05 A3024 RMK A01 T10121049  RH  076%=      5-min Rain = 0
KBY1 150651Z 29006KT M01/M05 A3024 RMK A01 T10131050  RH  076%=      5-min Rain = 0
KBY1 150652Z 28005KT M01/M05 A3024 RMK A01 T10131050  RH  076%=      5-min Rain = 0
KBY1 150653Z 28006KT M01/M05 A3024 RMK A01 T10141050  RH  077%=      5-min Rain = 0
KBY1 150654Z 28005KT M01/M05 A3024 RMK A01 T10141050  RH  077%=      5-min Rain = 0
KBY1 150655Z 28005KT M01/M05 A3023 RMK A01 T10141049  RH  077%=      5-min Rain = 0
KBY1 150656Z 28005KT M02/M05 A3024 RMK A01 T10151050  RH  077%=      5-min Rain = 0
KBY1 150657Z 27005KT M02/M05 A3024 RMK A01 T10151050  RH  077%=      5-min Rain = 0
KBY1 150658Z 28004KT M02/M05 A3024 RMK A01 T10151049  RH  078%=      5-min Rain = 0
KBY1 150659Z 28005KT M02/M05 A3024 RMK A01 T10161049  RH  078%=      5-min Rain = 0
KBY1 150700Z 28004KT M02/M05 A3024 RMK A01 T10161049  RH  078%=      5-min Rain = 0
KBY1 150701Z 28005KT M02/M05 A3024 RMK A01 T10171050  RH  078%=      5-min Rain = 0
KBY1 150702Z 29005KT M02/M05 A3024 RMK A01 T10171050  RH  079%=      5-min Rain = 0
KBY1 150703Z 28004KT M02/M05 A3024 RMK A01 T10171049  RH  079%=      5-min Rain = 0
KBY1 150704Z 28005KT M02/M05 A3024 RMK A01 T10171049  RH  079%=      5-min Rain = 0
KBY1 150705Z 28005KT M02/M05 A3024 RMK A01 T10171049  RH  079%=      5-min Rain = 0
KBY1 150706Z 28005KT M02/M05 A3024 RMK A01 T10171049  RH  079%=      5-min Rain = 0
KBY1 150707Z 28005KT M02/M05 A3024 RMK A01 T10171049  RH  079%=      5-min Rain = 0
KBY1 150708Z 28005KT M02/M05 A3024 RMK A01 T10171049  RH  079%=      5-min Rain = 0
KBY1 150709Z 28004KT M02/M05 A3024 RMK A01 T10181050  RH  079%=      5-min Rain = 0
KBY1 150710Z 28005KT M02/M05 A3024 RMK A01 T10181049  RH  079%=      5-min Rain = 0
KBY1 150711Z 27006KT M02/M05 A3024 RMK A01 T10171049  RH  079%=      5-min Rain = 0
KBY1 150712Z 27006KT M02/M05 A3024 RMK A01 T10171049  RH  079%=      5-min Rain = 0
KBY1 150713Z 28005KT M02/M05 A3024 RMK A01 T10181049  RH  079%=      5-min Rain = 0
KBY1 150714Z 27005KT M02/M05 A3024 RMK A01 T10171049  RH  079%=      5-min Rain = 0
KBY1 150715Z 28006KT M02/M05 A3024 RMK A01 T10171049  RH  078%=      5-min Rain = 0
KBY1 150716Z 28006KT M02/M05 A3024 RMK A01 T10171050  RH  078%=      5-min Rain = 0
KBY1 150717Z 27006KT M02/M05 A3024 RMK A01 T10171049  RH  078%=      5-min Rain = 0
KBY1 150718Z 28006KT M02/M05 A3024 RMK A01 T10171049  RH  078%=      5-min Rain = 0
KBY1 150719Z 27006KT M02/M05 A3024 RMK A01 T10161049  RH  078%=      5-min Rain = 0
KBY1 150720Z 27006KT M02/M05 A3024 RMK A01 T10161050  RH  078%=      5-min Rain = 0
KBY1 150721Z 27006KT M02/M05 A3024 RMK A01 T10161050  RH  078%=      5-min Rain = 0
KBY1 150722Z 28005KT M02/M05 A3024 RMK A01 T10161050  RH  077%=      5-min Rain = 0
KBY1 150723Z 28006KT M02/M05 A3023 RMK A01 T10161050  RH  077%=      5-min Rain = 0
KBY1 150724Z 28006KT M02/M05 A3023 RMK A01 T10151050  RH  077%=      5-min Rain = 0
KBY1 150725Z 27007KT M02/M05 A3023 RMK A01 T10161050  RH  077%=      5-min Rain = 0
KBY1 150726Z 27006KT M02/M05 A3023 RMK A01 T10151050  RH  077%=      5-min Rain = 0
KBY1 150727Z 28006KT M02/M05 A3023 RMK A01 T10151050  RH  077%=      5-min Rain = 0
KBY1 150728Z 28006KT M01/M05 A3023 RMK A01 T10141050  RH  077%=      5-min Rain = 0
KBY1 150729Z 27005KT M02/M05 A3023 RMK A01 T10151050  RH  077%=      5-min Rain = 0
KBY1 150730Z 27007KT M02/M05 A3023 RMK A01 T10151050  RH  077%=      5-min Rain = 0
KBY1 150731Z 27007KT M01/M05 A3023 RMK A01 T10141050  RH  077%=      5-min Rain = 0
KBY1 150732Z 28006KT M01/M05 A3023 RMK A01 T10141050  RH  076%=      5-min Rain = 0
KBY1 150733Z 27007KT M01/M05 A3023 RMK A01 T10141050  RH  076%=      5-min Rain = 0
KBY1 150734Z 27006KT M01/M05 A3023 RMK A01 T10141050  RH  077%=      5-min Rain = 0
KBY1 150735Z 26007KT M01/M05 A3023 RMK A01 T10141050  RH  077%=      5-min Rain = 0
KBY1 150736Z 27008KT M02/M05 A3023 RMK A01 T10151050  RH  077%=      5-min Rain = 0
KBY1 150737Z 27008KT M01/M05 A3023 RMK A01 T10141050  RH  077%=      5-min Rain = 0
KBY1 150738Z 27009KT M01/M05 A3023 RMK A01 T10141050  RH  076%=      5-min Rain = 0
KBY1 150739Z 27008KT M01/M05 A3023 RMK A01 T10141050  RH  076%=      5-min Rain = 0
KBY1 150740Z 28007KT M01/M05 A3023 RMK A01 T10141050  RH  076%=      5-min Rain = 0
KBY1 150741Z 27008KT M01/M05 A3023 RMK A01 T10131050  RH  076%=      5-min Rain = 0
KBY1 150742Z 27008KT M01/M05 A3023 RMK A01 T10131051  RH  076%=      5-min Rain = 0
KBY1 150743Z 27008KT M01/M05 A3023 RMK A01 T10141051  RH  076%=      5-min Rain = 0
KBY1 150744Z 27007KT M01/M05 A3023 RMK A01 T10141051  RH  076%=      5-min Rain = 0
KBY1 150745Z 27007KT M01/M05 A3023 RMK A01 T10141050  RH  076%=      5-min Rain = 0
KBY1 150746Z 27005KT M01/M05 A3023 RMK A01 T10141050  RH  076%=      5-min Rain = 0
KBY1 150747Z 27006KT M01/M05 A3023 RMK A01 T10141050  RH  076%=      5-min Rain = 0
KBY1 150748Z 27006KT M01/M05 A3023 RMK A01 T10141050  RH  076%=      5-min Rain = 0
KBY1 150749Z 27006KT M01/M05 A3023 RMK A01 T10141050  RH  076%=      5-min Rain = 0
KBY1 150750Z 27007KT M01/M05 A3023 RMK A01 T10141050  RH  076%=      5-min Rain = 0
KBY1 150751Z 27007KT M01/M05 A3023 RMK A01 T10141050  RH  076%=      5-min Rain = 0
KBY1 150752Z 27007KT M01/M05 A3023 RMK A01 T10141050  RH  076%=      5-min Rain = 0
KBY1 150753Z 27007KT M02/M05 A3023 RMK A01 T10151051  RH  077%=      5-min Rain = 0
KBY1 150754Z 27007KT M02/M05 A3023 RMK A01 T10151050  RH  077%=      5-min Rain = 0
KBY1 150755Z 27007KT M02/M05 A3024 RMK A01 T10151051  RH  077%=      5-min Rain = 0
KBY1 150756Z 28006KT M02/M05 A3024 RMK A01 T10151051  RH  077%=      5-min Rain = 0
KBY1 150757Z 27008KT M02/M05 A3024 RMK A01 T10151051  RH  077%=      5-min Rain = 0
KBY1 150758Z 27008KT M02/M05 A3024 RMK A01 T10161051  RH  077%=      5-min Rain = 0
KBY1 150759Z 27007KT M02/M05 A3024 RMK A01 T10161051  RH  077%=      5-min Rain = 0
KBY1 150800Z 28007KT M02/M05 A3024 RMK A01 T10151051  RH  076%=      5-min Rain = 0
KBY1 150801Z 28007KT M02/M05 A3024 RMK A01 T10151051  RH  076%=      5-min Rain = 0
KBY1 150802Z 28007KT M02/M05 A3024 RMK A01 T10151051  RH  077%=      5-min Rain = 0
KBY1 150803Z 27006KT M02/M05 A3024 RMK A01 T10151050  RH  077%=      5-min Rain = 0
KBY1 150804Z 28006KT M02/M05 A3024 RMK A01 T10151050  RH  077%=      5-min Rain = 0
KBY1 150805Z 28007KT M02/M05 A3024 RMK A01 T10151050  RH  077%=      5-min Rain = 0
KBY1 150806Z 28006KT M02/M05 A3024 RMK A01 T10151051  RH  077%=      5-min Rain = 0
KBY1 150807Z 28007KT M02/M05 A3024 RMK A01 T10161051  RH  077%=      5-min Rain = 0
KBY1 150808Z 28007KT M02/M05 A3024 RMK A01 T10161051  RH  077%=      5-min Rain = 0
KBY1 150809Z 28007KT M02/M05 A3024 RMK A01 T10151051  RH  077%=      5-min Rain = 0
KBY1 150810Z 28007KT M02/M05 A3023 RMK A01 T10151051  RH  077%=      5-min Rain = 0
KBY1 150811Z 27007KT M02/M05 A3023 RMK A01 T10151050  RH  077%=      5-min Rain = 0
KBY1 150812Z 28006KT M02/M05 A3024 RMK A01 T10151050  RH  077%=      5-min Rain = 0
KBY1 150813Z 27007KT M02/M05 A3024 RMK A01 T10151050  RH  077%=      5-min Rain = 0
KBY1 150814Z 28006KT M02/M05 A3024 RMK A01 T10151050  RH  077%=      5-min Rain = 0
KBY1 150815Z 28007KT M02/M05 A3024 RMK A01 T10151050  RH  077%=      5-min Rain = 0
KBY1 150816Z 28005KT M02/M05 A3024 RMK A01 T10151051  RH  077%=      5-min Rain = 0
KBY1 150817Z 28007KT M02/M05 A3024 RMK A01 T10151051  RH  077%=      5-min Rain = 0
KBY1 150818Z 28005KT M02/M05 A3024 RMK A01 T10151050  RH  077%=      5-min Rain = 0
KBY1 150819Z 28005KT M02/M05 A3024 RMK A01 T10161051  RH  077%=      5-min Rain = 0
KBY1 150820Z 28006KT M02/M05 A3024 RMK A01 T10161050  RH  077%=      5-min Rain = 0
KBY1 150821Z 28005KT M02/M05 A3024 RMK A01 T10161051  RH  077%=      5-min Rain = 0
KBY1 150822Z 28005KT M02/M05 A3024 RMK A01 T10161051  RH  077%=      5-min Rain = 0
KBY1 150823Z 28005KT M02/M05 A3024 RMK A01 T10161050  RH  078%=      5-min Rain = 0
KBY1 150824Z 28004KT M02/M05 A3024 RMK A01 T10171051  RH  078%=      5-min Rain = 0
KBY1 150825Z 27005KT M02/M05 A3024 RMK A01 T10171051  RH  078%=      5-min Rain = 0
KBY1 150826Z 28005KT M02/M05 A3024 RMK A01 T10171051  RH  078%=      5-min Rain = 0
KBY1 150827Z 28005KT M02/M05 A3024 RMK A01 T10181051  RH  078%=      5-min Rain = 0
KBY1 150828Z 28006KT M02/M05 A3024 RMK A01 T10181051  RH  078%=      5-min Rain = 0
KBY1 150829Z 28005KT M02/M05 A3024 RMK A01 T10181051  RH  078%=      5-min Rain = 0
KBY1 150830Z 27005KT M02/M05 A3024 RMK A01 T10181051  RH  078%=      5-min Rain = 0
KBY1 150831Z 27005KT M02/M05 A3024 RMK A01 T10181051  RH  078%=      5-min Rain = 0
KBY1 150832Z 27005KT M02/M05 A3024 RMK A01 T10191051  RH  079%=      5-min Rain = 0
KBY1 150833Z 27005KT M02/M05 A3024 RMK A01 T10191051  RH  079%=      5-min Rain = 0
KBY1 150834Z 28005KT M02/M05 A3024 RMK A01 T10201052  RH  079%=      5-min Rain = 0
KBY1 150835Z 28005KT M02/M05 A3024 RMK A01 T10201052  RH  079%=      5-min Rain = 0
KBY1 150836Z 28005KT M02/M05 A3024 RMK A01 T10201052  RH  079%=      5-min Rain = 0
KBY1 150837Z 29004KT M02/M05 A3024 RMK A01 T10191051  RH  079%=      5-min Rain = 0
KBY1 150838Z 28006KT M02/M05 A3024 RMK A01 T10191051  RH  079%=      5-min Rain = 0
KBY1 150839Z 28005KT M02/M05 A3024 RMK A01 T10191052  RH  079%=      5-min Rain = 0
KBY1 150840Z 28005KT M02/M05 A3024 RMK A01 T10191052  RH  079%=      5-min Rain = 0
KBY1 150841Z 28005KT M02/M05 A3024 RMK A01 T10191052  RH  079%=      5-min Rain = 0
KBY1 150842Z 28005KT M02/M05 A3024 RMK A01 T10201052  RH  079%=      5-min Rain = 0
KBY1 150843Z 28006KT M02/M05 A3024 RMK A01 T10201052  RH  079%=      5-min Rain = 0
KBY1 150844Z 28005KT M02/M05 A3024 RMK A01 T10191052  RH  078%=      5-min Rain = 0
KBY1 150845Z 28005KT M02/M05 A3024 RMK A01 T10191052  RH  078%=      5-min Rain = 0
KBY1 150846Z 28004KT M02/M05 A3024 RMK A01 T10191052  RH  078%=      5-min Rain = 0
KBY1 150847Z 27006KT M02/M05 A3024 RMK A01 T10191052  RH  078%=      5-min Rain = 0
KBY1 150848Z 28004KT M02/M05 A3024 RMK A01 T10181051  RH  078%=      5-min Rain = 0
KBY1 150849Z 28005KT M02/M05 A3024 RMK A01 T10191051  RH  078%=      5-min Rain = 0
KBY1 150850Z 27005KT M02/M05 A3024 RMK A01 T10191052  RH  078%=      5-min Rain = 0
KBY1 150851Z 27005KT M02/M05 A3024 RMK A01 T10191052  RH  078%=      5-min Rain = 0
KBY1 150852Z 28005KT M02/M05 A3024 RMK A01 T10191052  RH  078%=      5-min Rain = 0
KBY1 150853Z 28004KT M02/M05 A3024 RMK A01 T10191051  RH  078%=      5-min Rain = 0
KBY1 150854Z 28004KT M02/M05 A3024 RMK A01 T10191052  RH  078%=      5-min Rain = 0
KBY1 150855Z 27004KT M02/M05 A3024 RMK A01 T10191052  RH  078%=      5-min Rain = 0
KBY1 150856Z 27004KT M02/M05 A3024 RMK A01 T10191052  RH  078%=      5-min Rain = 0
KBY1 150857Z 27005KT M02/M05 A3024 RMK A01 T10191052  RH  078%=      5-min Rain = 0
KBY1 150858Z 27006KT M02/M05 A3024 RMK A01 T10191052  RH  078%=      5-min Rain = 0
KBY1 150859Z 27005KT M02/M05 A3024 RMK A01 T10191052  RH  078%=      5-min Rain = 0
KBY1 150900Z 27004KT M02/M05 A3024 RMK A01 T10191052  RH  078%=      5-min Rain = 0
KBY1 150901Z 28004KT M02/M05 A3024 RMK A01 T10191052  RH  078%=      5-min Rain = 0
KBY1 150902Z 27003KT M02/M05 A3024 RMK A01 T10191052  RH  078%=      5-min Rain = 0
KBY1 150903Z 27004KT M02/M05 A3024 RMK A01 T10191051  RH  078%=      5-min Rain = 0
KBY1 150904Z 28005KT M02/M05 A3024 RMK A01 T10191052  RH  078%=      5-min Rain = 0
KBY1 150905Z 28004KT M02/M05 A3024 RMK A01 T10191052  RH  078%=      5-min Rain = 0
KBY1 150906Z 27004KT M02/M05 A3024 RMK A01 T10181051  RH  078%=      5-min Rain = 0
KBY1 150907Z 28005KT M02/M05 A3024 RMK A01 T10181052  RH  078%=      5-min Rain = 0
KBY1 150908Z 27005KT M02/M05 A3024 RMK A01 T10191052  RH  078%=      5-min Rain = 0
KBY1 150909Z 27004KT M02/M05 A3024 RMK A01 T10191052  RH  078%=      5-min Rain = 0
KBY1 150910Z 28004KT M02/M05 A3024 RMK A01 T10191052  RH  078%=      5-min Rain = 0
KBY1 150911Z 28004KT M02/M05 A3024 RMK A01 T10201052  RH  079%=      5-min Rain = 0
KBY1 150912Z 27004KT M02/M05 A3024 RMK A01 T10201052  RH  079%=      5-min Rain = 0
KBY1 150913Z 28004KT M02/M05 A3024 RMK A01 T10201052  RH  079%=      5-min Rain = 0
KBY1 150914Z 28005KT M02/M05 A3024 RMK A01 T10201052  RH  079%=      5-min Rain = 0
KBY1 150915Z 27006KT M02/M05 A3024 RMK A01 T10201052  RH  079%=      5-min Rain = 0
KBY1 150916Z 28004KT M02/M05 A3024 RMK A01 T10211052  RH  079%=      5-min Rain = 0
KBY1 150917Z 28004KT M02/M05 A3024 RMK A01 T10201052  RH  079%=      5-min Rain = 0
KBY1 150918Z 28005KT M02/M05 A3024 RMK A01 T10211052  RH  079%=      5-min Rain = 0
KBY1 150919Z 28005KT M02/M05 A3024 RMK A01 T10211053  RH  079%=      5-min Rain = 0
KBY1 150920Z 27006KT M02/M05 A3024 RMK A01 T10211052  RH  079%=      5-min Rain = 0
KBY1 150921Z 28004KT M02/M05 A3024 RMK A01 T10201052  RH  078%=      5-min Rain = 0
KBY1 150922Z 27005KT M02/M05 A3024 RMK A01 T10201052  RH  078%=      5-min Rain = 0
KBY1 150923Z 28005KT M02/M05 A3024 RMK A01 T10201052  RH  078%=      5-min Rain = 0
KBY1 150924Z 28005KT M02/M05 A3024 RMK A01 T10201052  RH  079%=      5-min Rain = 0
KBY1 150925Z 29005KT M02/M05 A3024 RMK A01 T10201053  RH  079%=      5-min Rain = 0
KBY1 150926Z 29005KT M02/M05 A3024 RMK A01 T10201052  RH  079%=      5-min Rain = 0
KBY1 150927Z 29005KT M02/M05 A3024 RMK A01 T10211053  RH  079%=      5-min Rain = 0
KBY1 150928Z 28005KT M02/M05 A3024 RMK A01 T10211052  RH  079%=      5-min Rain = 0
KBY1 150929Z 29007KT M02/M05 A3024 RMK A01 T10211053  RH  079%=      5-min Rain = 0
KBY1 150930Z 29006KT M02/M05 A3024 RMK A01 T10211053  RH  079%=      5-min Rain = 0
KBY1 150931Z 28005KT M02/M05 A3024 RMK A01 T10211053  RH  079%=      5-min Rain = 0
KBY1 150932Z 28005KT M02/M05 A3024 RMK A01 T10211053  RH  079%=      5-min Rain = 0
KBY1 150933Z 28005KT M02/M05 A3024 RMK A01 T10211053  RH  079%=      5-min Rain = 0
KBY1 150934Z 28005KT M02/M05 A3024 RMK A01 T10211053  RH  079%=      5-min Rain = 0
KBY1 150935Z 27006KT M02/M05 A3024 RMK A01 T10221053  RH  079%=      5-min Rain = 0
KBY1 150936Z 27006KT M02/M05 A3024 RMK A01 T10221053  RH  079%=      5-min Rain = 0
KBY1 150937Z 27006KT M02/M05 A3024 RMK A01 T10221053  RH  079%=      5-min Rain = 0
KBY1 150938Z 28005KT M02/M05 A3024 RMK A01 T10221053  RH  079%=      5-min Rain = 0
KBY1 150939Z 28005KT M02/M05 A3024 RMK A01 T10211053  RH  079%=      5-min Rain = 0
KBY1 150940Z 27005KT M02/M05 A3024 RMK A01 T10221054  RH  079%=      5-min Rain = 0
KBY1 150941Z 27005KT M02/M05 A3024 RMK A01 T10221053  RH  079%=      5-min Rain = 0
KBY1 150942Z 27006KT M02/M05 A3024 RMK A01 T10211053  RH  079%=      5-min Rain = 0
KBY1 150943Z 27007KT M02/M05 A3024 RMK A01 T10211053  RH  079%=      5-min Rain = 0
KBY1 150944Z 28005KT M02/M05 A3024 RMK A01 T10211053  RH  079%=      5-min Rain = 0
KBY1 150945Z 27005KT M02/M05 A3024 RMK A01 T10211053  RH  079%=      5-min Rain = 0
KBY1 150946Z 28005KT M02/M05 A3025 RMK A01 T10211053  RH  079%=      5-min Rain = 0
KBY1 150947Z 28005KT M02/M05 A3025 RMK A01 T10211053  RH  079%=      5-min Rain = 0
KBY1 150948Z 27005KT M02/M05 A3024 RMK A01 T10211053  RH  079%=      5-min Rain = 0
KBY1 150949Z 27005KT M02/M05 A3024 RMK A01 T10211053  RH  079%=      5-min Rain = 0
KBY1 150950Z 28005KT M02/M05 A3024 RMK A01 T10211053  RH  078%=      5-min Rain = 0
KBY1 150951Z 28004KT M02/M05 A3024 RMK A01 T10211053  RH  078%=      5-min Rain = 0
KBY1 150952Z 28005KT M02/M05 A3024 RMK A01 T10211053  RH  078%=      5-min Rain = 0
KBY1 150953Z 28005KT M02/M05 A3024 RMK A01 T10201053  RH  078%=      5-min Rain = 0
KBY1 150954Z 28006KT M02/M05 A3024 RMK A01 T10201053  RH  078%=      5-min Rain = 0
KBY1 150955Z 29006KT M02/M05 A3024 RMK A01 T10201053  RH  078%=      5-min Rain = 0
KBY1 150956Z 28006KT M02/M05 A3024 RMK A01 T10201053  RH  078%=      5-min Rain = 0
KBY1 150957Z 28005KT M02/M05 A3024 RMK A01 T10201053  RH  078%=      5-min Rain = 0
KBY1 150958Z 28005KT M02/M05 A3025 RMK A01 T10211054  RH  078%=      5-min Rain = 0
KBY1 150959Z 28005KT M02/M05 A3024 RMK A01 T10221054  RH  078%=      5-min Rain = 0
KBY1 151000Z 29005KT M02/M05 A3025 RMK A01 T10221054  RH  079%=      5-min Rain = 0
KBY1 151001Z 28004KT M02/M05 A3025 RMK A01 T10221054  RH  079%=      5-min Rain = 0
KBY1 151002Z 29004KT M02/M05 A3025 RMK A01 T10231054  RH  079%=      5-min Rain = 0
KBY1 151003Z 28005KT M02/M05 A3025 RMK A01 T10231054  RH  079%=      5-min Rain = 0
KBY1 151004Z 28005KT M02/M05 A3024 RMK A01 T10231054  RH  079%=      5-min Rain = 0
KBY1 151005Z 28005KT M02/M05 A3024 RMK A01 T10231054  RH  079%=      5-min Rain = 0
KBY1 151006Z 28005KT M02/M05 A3024 RMK A01 T10221054  RH  079%=      5-min Rain = 0
KBY1 151007Z 27004KT M02/M05 A3024 RMK A01 T10221054  RH  079%=      5-min Rain = 0
KBY1 151008Z 28004KT M02/M05 A3025 RMK A01 T10221054  RH  079%=      5-min Rain = 0
KBY1 151009Z 28004KT M02/M05 A3025 RMK A01 T10231054  RH  079%=      5-min Rain = 0
KBY1 151010Z 28003KT M02/M05 A3025 RMK A01 T10241054  RH  080%=      5-min Rain = 0
KBY1 151011Z 28004KT M02/M05 A3025 RMK A01 T10241054  RH  080%=      5-min Rain = 0
KBY1 151012Z 28003KT M02/M05 A3025 RMK A01 T10241054  RH  080%=      5-min Rain = 0
KBY1 151013Z 28003KT M02/M05 A3025 RMK A01 T10241054  RH  080%=      5-min Rain = 0
KBY1 151014Z 27004KT M02/M05 A3025 RMK A01 T10241053  RH  080%=      5-min Rain = 0
KBY1 151015Z 28005KT M02/M05 A3025 RMK A01 T10241053  RH  080%=      5-min Rain = 0
KBY1 151016Z 29005KT M02/M05 A3025 RMK A01 T10241054  RH  080%=      5-min Rain = 0
KBY1 151017Z 28003KT M02/M05 A3025 RMK A01 T10231054  RH  080%=      5-min Rain = 0
KBY1 151018Z 28006KT M02/M05 A3025 RMK A01 T10231054  RH  079%=      5-min Rain = 0
KBY1 151019Z 27004KT M02/M05 A3025 RMK A01 T10231054  RH  079%=      5-min Rain = 0
KBY1 151020Z 29004KT M02/M05 A3025 RMK A01 T10221054  RH  079%=      5-min Rain = 0
KBY1 151021Z 28004KT M02/M05 A3025 RMK A01 T10231054  RH  079%=      5-min Rain = 0
KBY1 151022Z 29003KT M02/M05 A3025 RMK A01 T10241054  RH  080%=      5-min Rain = 0
KBY1 151023Z 29003KT M02/M06 A3025 RMK A01 T10241055  RH  080%=      5-min Rain = 0
KBY1 151024Z 27003KT M03/M06 A3025 RMK A01 T10251055  RH  080%=      5-min Rain = 0
KBY1 151025Z 28003KT M03/M06 A3025 RMK A01 T10251055  RH  080%=      5-min Rain = 0
KBY1 151026Z 28004KT M03/M06 A3025 RMK A01 T10251055  RH  080%=      5-min Rain = 0
KBY1 151027Z 28005KT M03/M05 A3025 RMK A01 T10251054  RH  080%=      5-min Rain = 0
KBY1 151028Z 28005KT M03/M05 A3025 RMK A01 T10251054  RH  080%=      5-min Rain = 0
KBY1 151029Z 28003KT M02/M06 A3025 RMK A01 T10241055  RH  080%=      5-min Rain = 0
KBY1 151030Z 28004KT M02/M06 A3025 RMK A01 T10241055  RH  080%=      5-min Rain = 0
KBY1 151031Z 27005KT M02/M05 A3025 RMK A01 T10241054  RH  080%=      5-min Rain = 0
KBY1 151032Z 28004KT M03/M06 A3025 RMK A01 T10251055  RH  080%=      5-min Rain = 0
KBY1 151033Z 28003KT M03/M06 A3025 RMK A01 T10251055  RH  080%=      5-min Rain = 0
KBY1 151034Z 28002KT M03/M06 A3025 RMK A01 T10261055  RH  080%=      5-min Rain = 0
KBY1 151035Z 28004KT M03/M06 A3025 RMK A01 T10261055  RH  081%=      5-min Rain = 0
KBY1 151036Z 27004KT M03/M06 A3025 RMK A01 T10271055  RH  081%=      5-min Rain = 0
KBY1 151037Z 27006KT M03/M06 A3025 RMK A01 T10271055  RH  081%=      5-min Rain = 0
KBY1 151038Z 27005KT M03/M05 A3025 RMK A01 T10261054  RH  081%=      5-min Rain = 0
KBY1 151039Z 28005KT M03/M06 A3025 RMK A01 T10261055  RH  081%=      5-min Rain = 0
KBY1 151040Z 28005KT M03/M06 A3025 RMK A01 T10261055  RH  081%=      5-min Rain = 0
KBY1 151041Z 28004KT M03/M05 A3025 RMK A01 T10261054  RH  081%=      5-min Rain = 0
KBY1 151042Z 27004KT M03/M05 A3025 RMK A01 T10251054  RH  081%=      5-min Rain = 0
KBY1 151043Z 28005KT M03/M05 A3025 RMK A01 T10251054  RH  081%=      5-min Rain = 0
KBY1 151044Z 27005KT M03/M05 A3025 RMK A01 T10261054  RH  081%=      5-min Rain = 0
KBY1 151045Z 27004KT M03/M06 A3025 RMK A01 T10261055  RH  081%=      5-min Rain = 0
KBY1 151046Z 27004KT M03/M06 A3025 RMK A01 T10261055  RH  080%=      5-min Rain = 0
KBY1 151047Z 27004KT M03/M06 A3025 RMK A01 T10261055  RH  080%=      5-min Rain = 0
KBY1 151048Z 27002KT M03/M06 A3025 RMK A01 T10261055  RH  080%=      5-min Rain = 0
KBY1 151049Z 28003KT M03/M05 A3025 RMK A01 T10251054  RH  081%=      5-min Rain = 0
KBY1 151050Z 28004KT M03/M06 A3025 RMK A01 T10261055  RH  081%=      5-min Rain = 0
KBY1 151051Z 27003KT M03/M06 A3025 RMK A01 T10261055  RH  081%=      5-min Rain = 0
KBY1 151052Z 28003KT M03/M05 A3025 RMK A01 T10251054  RH  081%=      5-min Rain = 0
KBY1 151053Z 28002KT M03/M06 A3025 RMK A01 T10261055  RH  081%=      5-min Rain = 0
KBY1 151054Z 27003KT M03/M06 A3025 RMK A01 T10261055  RH  081%=      5-min Rain = 0
KBY1 151055Z 28003KT M03/M06 A3025 RMK A01 T10271055  RH  081%=      5-min Rain = 0
KBY1 151056Z 28006KT M03/M06 A3025 RMK A01 T10271055  RH  081%=      5-min Rain = 0
KBY1 151057Z 29004KT M03/M06 A3025 RMK A01 T10261055  RH  081%=      5-min Rain = 0
KBY1 151058Z 28003KT M03/M05 A3025 RMK A01 T10251054  RH  081%=      5-min Rain = 0
KBY1 151059Z 28005KT M03/M06 A3025 RMK A01 T10251055  RH  080%=      5-min Rain = 0
KBY1 151100Z 27004KT M03/M06 A3025 RMK A01 T10261055  RH  080%=      5-min Rain = 0
KBY1 151101Z 28004KT M03/M06 A3025 RMK A01 T10251055  RH  080%=      5-min Rain = 0
KBY1 151102Z 28003KT M03/M06 A3025 RMK A01 T10251055  RH  080%=      5-min Rain = 0
KBY1 151103Z 28003KT M03/M06 A3025 RMK A01 T10261055  RH  080%=      5-min Rain = 0
KBY1 151104Z 28003KT M03/M06 A3025 RMK A01 T10261055  RH  080%=      5-min Rain = 0
KBY1 151105Z 28004KT M03/M06 A3025 RMK A01 T10261055  RH  080%=      5-min Rain = 0
KBY1 151106Z 28003KT M03/M06 A3025 RMK A01 T10261055  RH  080%=      5-min Rain = 0
KBY1 151107Z 28003KT M03/M06 A3025 RMK A01 T10261056  RH  080%=      5-min Rain = 0
KBY1 151108Z 28002KT M03/M06 A3025 RMK A01 T10261055  RH  080%=      5-min Rain = 0
KBY1 151109Z 27002KT M03/M06 A3025 RMK A01 T10261055  RH  080%=      5-min Rain = 0
KBY1 151110Z 27003KT M03/M06 A3025 RMK A01 T10261055  RH  080%=      5-min Rain = 0
KBY1 151111Z 27002KT M03/M06 A3025 RMK A01 T10261055  RH  080%=      5-min Rain = 0
KBY1 151112Z 28002KT M03/M06 A3025 RMK A01 T10261055  RH  080%=      5-min Rain = 0
KBY1 151113Z 26002KT M03/M06 A3025 RMK A01 T10261055  RH  080%=      5-min Rain = 0
KBY1 151114Z 25003KT M03/M06 A3025 RMK A01 T10261055  RH  080%=      5-min Rain = 0
KBY1 151115Z 27003KT M03/M06 A3025 RMK A01 T10261055  RH  081%=      5-min Rain = 0
KBY1 151116Z 26003KT M03/M06 A3025 RMK A01 T10271056  RH  081%=      5-min Rain = 0
KBY1 151117Z 26002KT M03/M06 A3025 RMK A01 T10271056  RH  081%=      5-min Rain = 0
KBY1 151118Z 27001KT M03/M06 A3025 RMK A01 T10271056  RH  081%=      5-min Rain = 0
KBY1 151119Z 27001KT M03/M06 A3025 RMK A01 T10271056  RH  081%=      5-min Rain = 0
KBY1 151120Z 27002KT M03/M06 A3025 RMK A01 T10281056  RH  081%=      5-min Rain = 0
KBY1 151121Z 28001KT M03/M06 A3025 RMK A01 T10281056  RH  081%=      5-min Rain = 0
KBY1 151122Z 27002KT M03/M06 A3025 RMK A01 T10281056  RH  082%=      5-min Rain = 0
KBY1 151123Z 26004KT M03/M06 A3025 RMK A01 T10291056  RH  082%=      5-min Rain = 0
KBY1 151124Z 27005KT M03/M06 A3025 RMK A01 T10291056  RH  082%=      5-min Rain = 0
KBY1 151125Z 27005KT M03/M06 A3025 RMK A01 T10291056  RH  082%=      5-min Rain = 0
KBY1 151126Z 27006KT M03/M06 A3025 RMK A01 T10291056  RH  082%=      5-min Rain = 0
KBY1 151127Z 27006KT M03/M06 A3025 RMK A01 T10291056  RH  082%=      5-min Rain = 0
KBY1 151128Z 27004KT M03/M06 A3025 RMK A01 T10281055  RH  081%=      5-min Rain = 0
KBY1 151129Z 27005KT M03/M06 A3025 RMK A01 T10281056  RH  081%=      5-min Rain = 0
KBY1 151130Z 28004KT M03/M06 A3025 RMK A01 T10281056  RH  081%=      5-min Rain = 0
KBY1 151131Z 27004KT M03/M06 A3025 RMK A01 T10281056  RH  081%=      5-min Rain = 0
KBY1 151132Z 27004KT M03/M06 A3025 RMK A01 T10281056  RH  081%=      5-min Rain = 0
KBY1 151133Z 28004KT M03/M06 A3025 RMK A01 T10281056  RH  081%=      5-min Rain = 0
KBY1 151134Z 28004KT M03/M06 A3025 RMK A01 T10281056  RH  081%=      5-min Rain = 0
KBY1 151135Z 28003KT M03/M06 A3025 RMK A01 T10281056  RH  081%=      5-min Rain = 0
KBY1 151136Z 27003KT M03/M06 A3025 RMK A01 T10281056  RH  081%=      5-min Rain = 0
KBY1 151137Z 28003KT M03/M06 A3025 RMK A01 T10271056  RH  081%=      5-min Rain = 0
KBY1 151138Z 29003KT M03/M06 A3025 RMK A01 T10271056  RH  081%=      5-min Rain = 0
KBY1 151139Z 28003KT M03/M06 A3025 RMK A01 T10281056  RH  081%=      5-min Rain = 0
KBY1 151140Z 27001KT M03/M06 A3025 RMK A01 T10281056  RH  081%=      5-min Rain = 0
KBY1 151141Z 28003KT M03/M06 A3026 RMK A01 T10281056  RH  081%=      5-min Rain = 0
KBY1 151142Z 26003KT M03/M06 A3025 RMK A01 T10291056  RH  082%=      5-min Rain = 0
KBY1 151143Z 28004KT M03/M06 A3026 RMK A01 T10291056  RH  082%=      5-min Rain = 0
KBY1 151144Z 27004KT M03/M06 A3026 RMK A01 T10291056  RH  082%=      5-min Rain = 0
KBY1 151145Z 28004KT M03/M06 A3026 RMK A01 T10291056  RH  082%=      5-min Rain = 0
KBY1 151146Z 28004KT M03/M06 A3026 RMK A01 T10291056  RH  082%=      5-min Rain = 0
KBY1 151147Z 28004KT M03/M06 A3026 RMK A01 T10291056  RH  082%=      5-min Rain = 0
KBY1 151148Z 28004KT M03/M06 A3026 RMK A01 T10291056  RH  082%=      5-min Rain = 0
KBY1 151149Z 27005KT M03/M06 A3026 RMK A01 T10291056  RH  082%=      5-min Rain = 0
KBY1 151150Z 27005KT M03/M06 A3026 RMK A01 T10291056  RH  082%=      5-min Rain = 0
KBY1 151151Z 27005KT M03/M06 A3026 RMK A01 T10291056  RH  081%=      5-min Rain = 0
KBY1 151152Z 27005KT M03/M06 A3026 RMK A01 T10291057  RH  081%=      5-min Rain = 0
KBY1 151153Z 27006KT M03/M06 A3026 RMK A01 T10291057  RH  081%=      5-min Rain = 0
KBY1 151154Z 28004KT M03/M06 A3026 RMK A01 T10291057  RH  081%=      5-min Rain = 0
KBY1 151155Z 28003KT M03/M06 A3026 RMK A01 T10301057  RH  081%=      5-min Rain = 0
KBY1 151156Z 27004KT M03/M06 A3026 RMK A01 T10301057  RH  082%=      5-min Rain = 0
KBY1 151157Z 27003KT M03/M06 A3026 RMK A01 T10301057  RH  082%=      5-min Rain = 0
KBY1 151158Z 27005KT M03/M06 A3026 RMK A01 T10311057  RH  082%=      5-min Rain = 0
KBY1 151159Z 27006KT M03/M06 A3026 RMK A01 T10321057  RH  082%=      5-min Rain = 0
KBY1 151200Z 27006KT M03/M06 A3026 RMK A01 T10321057  RH  083%=      5-min Rain = 0
KBY1 151201Z 27006KT M03/M06 A3026 RMK A01 T10331058  RH  083%=      5-min Rain = 0
KBY1 151202Z 27006KT M03/M06 A3025 RMK A01 T10321057  RH  083%=      5-min Rain = 0
KBY1 151203Z 27006KT M03/M06 A3025 RMK A01 T10311056  RH  083%=      5-min Rain = 0
KBY1 151204Z 27006KT M03/M06 A3025 RMK A01 T10301057  RH  082%=      5-min Rain = 0
KBY1 151205Z 27006KT M03/M06 A3025 RMK A01 T10301057  RH  082%=      5-min Rain = 0
KBY1 151206Z 27005KT M03/M06 A3025 RMK A01 T10301058  RH  081%=      5-min Rain = 0
KBY1 151207Z 27005KT M03/M06 A3025 RMK A01 T10301058  RH  081%=      5-min Rain = 0
KBY1 151208Z 28004KT M03/M06 A3025 RMK A01 T10311058  RH  081%=      5-min Rain = 0
KBY1 151209Z 28004KT M03/M06 A3025 RMK A01 T10311058  RH  082%=      5-min Rain = 0
KBY1 151210Z 27004KT M03/M06 A3025 RMK A01 T10311058  RH  082%=      5-min Rain = 0
KBY1 151211Z 27005KT M03/M06 A3025 RMK A01 T10311058  RH  082%=      5-min Rain = 0
KBY1 151212Z 27005KT M03/M06 A3025 RMK A01 T10301058  RH  081%=      5-min Rain = 0
KBY1 151213Z 26005KT M03/M06 A3025 RMK A01 T10301058  RH  081%=      5-min Rain = 0
KBY1 151214Z 27005KT M03/M06 A3025 RMK A01 T10301057  RH  081%=      5-min Rain = 0
KBY1 151215Z 27006KT M03/M06 A3025 RMK A01 T10301058  RH  081%=      5-min Rain = 0
KBY1 151216Z 27004KT M03/M06 A3025 RMK A01 T10291057  RH  081%=      5-min Rain = 0
KBY1 151217Z 28003KT M03/M06 A3025 RMK A01 T10291058  RH  081%=      5-min Rain = 0
KBY1 151218Z 27003KT M03/M06 A3025 RMK A01 T10291058  RH  081%=      5-min Rain = 0
KBY1 151219Z 26003KT M03/M06 A3025 RMK A01 T10301058  RH  081%=      5-min Rain = 0
KBY1 151220Z 26004KT M03/M06 A3025 RMK A01 T10301058  RH  081%=      5-min Rain = 0
KBY1 151221Z 26004KT M03/M06 A3025 RMK A01 T10301058  RH  081%=      5-min Rain = 0
KBY1 151222Z 26004KT M03/M06 A3025 RMK A01 T10301058  RH  081%=      5-min Rain = 0
KBY1 151223Z 26003KT M03/M06 A3025 RMK A01 T10311058  RH  081%=      5-min Rain = 0
KBY1 151224Z 26003KT M03/M06 A3025 RMK A01 T10321059  RH  081%=      5-min Rain = 0
KBY1 151225Z 26003KT M03/M06 A3025 RMK A01 T10321059  RH  082%=      5-min Rain = 0
KBY1 151226Z 27003KT M03/M06 A3025 RMK A01 T10331059  RH  082%=      5-min Rain = 0
KBY1 151227Z 27003KT M03/M06 A3025 RMK A01 T10331059  RH  083%=      5-min Rain = 0
KBY1 151228Z 27003KT M03/M06 A3025 RMK A01 T10331058  RH  082%=      5-min Rain = 0
KBY1 151229Z 27003KT M03/M06 A3025 RMK A01 T10321058  RH  082%=      5-min Rain = 0
KBY1 151230Z 27003KT M03/M06 A3025 RMK A01 T10321059  RH  082%=      5-min Rain = 0
KBY1 151231Z 27003KT M03/M06 A3025 RMK A01 T10331059  RH  082%=      5-min Rain = 0
KBY1 151232Z 27004KT M03/M06 A3025 RMK A01 T10321059  RH  082%=      5-min Rain = 0
KBY1 151233Z 27004KT M03/M06 A3025 RMK A01 T10331059  RH  082%=      5-min Rain = 0
KBY1 151234Z 27004KT M03/M06 A3025 RMK A01 T10331059  RH  082%=      5-min Rain = 0
KBY1 151235Z 27004KT M03/M06 A3025 RMK A01 T10331059  RH  082%=      5-min Rain = 0
KBY1 151236Z 28005KT M03/M06 A3025 RMK A01 T10331059  RH  082%=      5-min Rain = 0
KBY1 151237Z 27006KT M03/M06 A3025 RMK A01 T10331060  RH  082%=      5-min Rain = 0
KBY1 151238Z 27005KT M03/M06 A3025 RMK A01 T10331060  RH  082%=      5-min Rain = 0
KBY1 151239Z 28005KT M03/M06 A3025 RMK A01 T10331060  RH  082%=      5-min Rain = 0
KBY1 151240Z 28005KT M03/M06 A3025 RMK A01 T10331060  RH  082%=      5-min Rain = 0
KBY1 151241Z 27004KT M03/M06 A3025 RMK A01 T10331060  RH  082%=      5-min Rain = 0
KBY1 151242Z 27004KT M03/M06 A3025 RMK A01 T10331060  RH  082%=      5-min Rain = 0
KBY1 151243Z 26003KT M03/M06 A3025 RMK A01 T10331060  RH  082%=      5-min Rain = 0
KBY1 151244Z 27003KT M03/M06 A3025 RMK A01 T10331060  RH  082%=      5-min Rain = 0
KBY1 151245Z 27003KT M04/M06 A3025 RMK A01 T10351061  RH  082%=      5-min Rain = 0
KBY1 151246Z 26003KT M04/M06 A3025 RMK A01 T10351061  RH  082%=      5-min Rain = 0
KBY1 151247Z 26003KT M04/M06 A3025 RMK A01 T10361061  RH  083%=      5-min Rain = 0
KBY1 151248Z 26003KT M04/M06 A3025 RMK A01 T10371061  RH  083%=      5-min Rain = 0
KBY1 151249Z 26003KT M04/M06 A3025 RMK A01 T10371061  RH  083%=      5-min Rain = 0
KBY1 151250Z 27003KT M04/M06 A3025 RMK A01 T10371061  RH  084%=      5-min Rain = 0
KBY1 151251Z 27003KT M04/M06 A3025 RMK A01 T10371061  RH  084%=      5-min Rain = 0
KBY1 151252Z 27004KT M04/M06 A3025 RMK A01 T10371060  RH  084%=      5-min Rain = 0
KBY1 151253Z 27004KT M04/M06 A3025 RMK A01 T10371060  RH  084%=      5-min Rain = 0
KBY1 151254Z 27004KT M04/M06 A3025 RMK A01 T10381061  RH  084%=      5-min Rain = 0
KBY1 151255Z 26005KT M04/M06 A3025 RMK A01 T10371061  RH  084%=      5-min Rain = 0
KBY1 151256Z 27004KT M04/M06 A3025 RMK A01 T10371060  RH  084%=      5-min Rain = 0
KBY1 151257Z 27004KT M04/M06 A3025 RMK A01 T10361060  RH  084%=      5-min Rain = 0
KBY1 151258Z 27005KT M04/M06 A3025 RMK A01 T10361060  RH  084%=      5-min Rain = 0
KBY1 151259Z 27005KT M04/M06 A3025 RMK A01 T10361060  RH  083%=      5-min Rain = 0
KBY1 151300Z 27005KT M04/M06 A3025 RMK A01 T10361060  RH  083%=      5-min Rain = 0
KBY1 151301Z 27005KT M04/M06 A3025 RMK A01 T10361060  RH  083%=      5-min Rain = 0
KBY1 151302Z 26005KT M04/M06 A3025 RMK A01 T10361060  RH  083%=      5-min Rain = 0
KBY1 151303Z 27004KT M04/M06 A3025 RMK A01 T10351060  RH  083%=      5-min Rain = 0
KBY1 151304Z 28003KT M04/M06 A3025 RMK A01 T10351060  RH  083%=      5-min Rain = 0
KBY1 151305Z 28003KT M04/M06 A3026 RMK A01 T10351060  RH  083%=      5-min Rain = 0
KBY1 151306Z 28003KT M04/M06 A3026 RMK A01 T10361061  RH  083%=      5-min Rain = 0
KBY1 151307Z 29003KT M04/M06 A3026 RMK A01 T10371062  RH  083%=      5-min Rain = 0
KBY1 151308Z 28003KT M04/M06 A3026 RMK A01 T10381062  RH  083%=      5-min Rain = 0
KBY1 151309Z 29003KT M04/M06 A3026 RMK A01 T10381062  RH  084%=      5-min Rain = 0
KBY1 151310Z 30003KT M04/M06 A3026 RMK A01 T10381061  RH  084%=      5-min Rain = 0
KBY1 151311Z 30003KT M04/M06 A3026 RMK A01 T10391062  RH  084%=      5-min Rain = 0
KBY1 151312Z 30003KT M04/M06 A3026 RMK A01 T10391063  RH  084%=      5-min Rain = 0
KBY1 151313Z 29004KT M04/M06 A3026 RMK A01 T10401063  RH  084%=      5-min Rain = 0
KBY1 151314Z 29004KT M04/M06 A3026 RMK A01 T10411064  RH  084%=      5-min Rain = 0
KBY1 151315Z 29004KT M04/M06 A3026 RMK A01 T10421064  RH  085%=      5-min Rain = 0
KBY1 151316Z 29004KT M04/M06 A3026 RMK A01 T10421063  RH  085%=      5-min Rain = 0
KBY1 151317Z 28004KT M04/M06 A3026 RMK A01 T10411062  RH  085%=      5-min Rain = 0
KBY1 151318Z 29004KT M04/M06 A3026 RMK A01 T10411062  RH  085%=      5-min Rain = 0
KBY1 151319Z 29004KT M04/M06 A3026 RMK A01 T10411062  RH  085%=      5-min Rain = 0
KBY1 151320Z 28005KT M04/M06 A3026 RMK A01 T10411062  RH  085%=      5-min Rain = 0
KBY1 151321Z 28005KT M04/M06 A3026 RMK A01 T10401061  RH  085%=      5-min Rain = 0
KBY1 151322Z 28005KT M04/M06 A3026 RMK A01 T10381060  RH  085%=      5-min Rain = 0
KBY1 151323Z 28005KT M04/M06 A3026 RMK A01 T10371060  RH  084%=      5-min Rain = 0
KBY1 151324Z 28005KT M04/M06 A3026 RMK A01 T10361060  RH  084%=      5-min Rain = 0
KBY1 151325Z 28005KT M04/M06 A3026 RMK A01 T10351060  RH  083%=      5-min Rain = 0
KBY1 151326Z 27006KT M03/M06 A3026 RMK A01 T10341060  RH  083%=      5-min Rain = 0
KBY1 151327Z 27005KT M03/M06 A3026 RMK A01 T10341060  RH  082%=      5-min Rain = 0
KBY1 151328Z 28005KT M03/M06 A3026 RMK A01 T10341060  RH  082%=      5-min Rain = 0
KBY1 151329Z 27006KT M03/M06 A3026 RMK A01 T10341060  RH  082%=      5-min Rain = 0
KBY1 151330Z 28005KT M03/M06 A3026 RMK A01 T10341060  RH  082%=      5-min Rain = 0
KBY1 151331Z 28005KT M03/M06 A3026 RMK A01 T10341060  RH  082%=      5-min Rain = 0
KBY1 151332Z 29005KT M03/M06 A3026 RMK A01 T10341061  RH  082%=      5-min Rain = 0
KBY1 151333Z 28006KT M03/M06 A3026 RMK A01 T10341061  RH  082%=      5-min Rain = 0
KBY1 151334Z 28006KT M04/M06 A3026 RMK A01 T10351061  RH  082%=      5-min Rain = 0
KBY1 151335Z 28005KT M04/M06 A3026 RMK A01 T10351061  RH  082%=      5-min Rain = 0
KBY1 151336Z 28005KT M04/M06 A3026 RMK A01 T10351061  RH  082%=      5-min Rain = 0
KBY1 151337Z 28005KT M04/M06 A3026 RMK A01 T10351061  RH  082%=      5-min Rain = 0
KBY1 151338Z 28004KT M04/M06 A3026 RMK A01 T10351061  RH  082%=      5-min Rain = 0
KBY1 151339Z 29004KT M04/M06 A3027 RMK A01 T10351061  RH  082%=      5-min Rain = 0
KBY1 151340Z 30003KT M04/M06 A3027 RMK A01 T10351062  RH  082%=      5-min Rain = 0
KBY1 151341Z 31003KT M04/M06 A3027 RMK A01 T10361062  RH  082%=      5-min Rain = 0
KBY1 151342Z 29004KT M04/M06 A3027 RMK A01 T10391064  RH  082%=      5-min Rain = 0
KBY1 151343Z 28004KT M04/M06 A3027 RMK A01 T10391064  RH  083%=      5-min Rain = 0
KBY1 151344Z 29004KT M04/M06 A3027 RMK A01 T10401062  RH  084%=      5-min Rain = 0
KBY1 151345Z 31003KT M04/M06 A3027 RMK A01 T10391061  RH  084%=      5-min Rain = 0
KBY1 151346Z 30004KT M04/M06 A3027 RMK A01 T10391062  RH  084%=      5-min Rain = 0
KBY1 151347Z 30004KT M04/M06 A3027 RMK A01 T10391063  RH  084%=      5-min Rain = 0
KBY1 151348Z 30004KT M04/M06 A3027 RMK A01 T10391062  RH  084%=      5-min Rain = 0
KBY1 151349Z 29005KT M04/M06 A3027 RMK A01 T10391061  RH  084%=      5-min Rain = 0
KBY1 151350Z 29005KT M04/M06 A3027 RMK A01 T10371060  RH  084%=      5-min Rain = 0
KBY1 151351Z 29005KT M04/M06 A3027 RMK A01 T10351059  RH  084%=      5-min Rain = 0
KBY1 151352Z 28005KT M04/M06 A3027 RMK A01 T10351060  RH  083%=      5-min Rain = 0
KBY1 151353Z 27006KT M03/M06 A3027 RMK A01 T10341060  RH  082%=      5-min Rain = 0
KBY1 151354Z 27006KT M03/M06 A3027 RMK A01 T10321060  RH  081%=      5-min Rain = 0
KBY1 151355Z 28005KT M03/M06 A3027 RMK A01 T10311060  RH  080%=      5-min Rain = 0
KBY1 151356Z 28005KT M03/M06 A3027 RMK A01 T10301060  RH  080%=      5-min Rain = 0
KBY1 151357Z 29003KT M03/M06 A3027 RMK A01 T10301060  RH  080%=      5-min Rain = 0
KBY1 151358Z 29004KT M03/M06 A3027 RMK A01 T10301059  RH  080%=      5-min Rain = 0
KBY1 151359Z 29005KT M03/M06 A3027 RMK A01 T10301060  RH  080%=      5-min Rain = 0
KBY1 151400Z 30003KT M03/M06 A3027 RMK A01 T10301060  RH  080%=      5-min Rain = 0
KBY1 151401Z 29004KT M03/M06 A3027 RMK A01 T10301059  RH  080%=      5-min Rain = 0
KBY1 151402Z 29006KT M03/M06 A3027 RMK A01 T10301059  RH  080%=      5-min Rain = 0
KBY1 151403Z 28006KT M03/M06 A3027 RMK A01 T10291060  RH  080%=      5-min Rain = 0
KBY1 151404Z 28005KT M03/M06 A3027 RMK A01 T10291060  RH  079%=      5-min Rain = 0
KBY1 151405Z 29005KT M03/M06 A3027 RMK A01 T10291060  RH  079%=      5-min Rain = 0
KBY1 151406Z 27007KT M03/M06 A3027 RMK A01 T10291060  RH  079%=      5-min Rain = 0
KBY1 151407Z 27008KT M03/M06 A3027 RMK A01 T10291060  RH  079%=      5-min Rain = 0
KBY1 151408Z 26009KT M03/M06 A3027 RMK A01 T10281059  RH  079%=      5-min Rain = 0
KBY1 151409Z 26007KT M03/M06 A3027 RMK A01 T10281059  RH  080%=      5-min Rain = 0
KBY1 151410Z 28006KT M03/M06 A3027 RMK A01 T10281058  RH  079%=      5-min Rain = 0
KBY1 151411Z 29005KT M03/M06 A3027 RMK A01 T10271058  RH  079%=      5-min Rain = 0
KBY1 151412Z 27005KT M03/M06 A3027 RMK A01 T10271059  RH  079%=      5-min Rain = 0
KBY1 151413Z 27007KT M03/M06 A3027 RMK A01 T10271059  RH  078%=      5-min Rain = 0
KBY1 151414Z 27007KT M03/M06 A3028 RMK A01 T10271060  RH  078%=      5-min Rain = 0
KBY1 151415Z 27007KT M03/M06 A3028 RMK A01 T10271060  RH  078%=      5-min Rain = 0
KBY1 151416Z 27006KT M03/M06 A3028 RMK A01 T10261059  RH  078%=      5-min Rain = 0
KBY1 151417Z 28005KT M03/M06 A3028 RMK A01 T10261059  RH  078%=      5-min Rain = 0
KBY1 151418Z 29004KT M03/M06 A3028 RMK A01 T10261058  RH  079%=      5-min Rain = 0
KBY1 151419Z 29005KT M03/M06 A3028 RMK A01 T10261057  RH  079%=      5-min Rain = 0
KBY1 151420Z 30005KT M03/M06 A3028 RMK A01 T10261058  RH  079%=      5-min Rain = 0
KBY1 151421Z 30005KT M03/M06 A3028 RMK A01 T10261058  RH  079%=      5-min Rain = 0
KBY1 151422Z 29004KT M03/M06 A3028 RMK A01 T10251057  RH  079%=      5-min Rain = 0
KBY1 151423Z 28004KT M02/M06 A3028 RMK A01 T10241057  RH  078%=      5-min Rain = 0
KBY1 151424Z 27005KT M02/M06 A3028 RMK A01 T10241056  RH  078%=      5-min Rain = 0
KBY1 151425Z 27006KT M02/M06 A3028 RMK A01 T10231056  RH  078%=      5-min Rain = 0
KBY1 151426Z 28007KT M02/M06 A3028 RMK A01 T10231057  RH  077%=      5-min Rain = 0
KBY1 151427Z 27007KT M02/M06 A3028 RMK A01 T10221058  RH  077%=      5-min Rain = 0
KBY1 151428Z 28005KT M02/M06 A3028 RMK A01 T10221058  RH  076%=      5-min Rain = 0
KBY1 151429Z 29004KT M02/M06 A3028 RMK A01 T10211057  RH  077%=      5-min Rain = 0
KBY1 151430Z 29004KT M02/M06 A3028 RMK A01 T10201055  RH  077%=      5-min Rain = 0
KBY1 151431Z 27005KT M02/M06 A3028 RMK A01 T10201055  RH  077%=      5-min Rain = 0
KBY1 151432Z 27005KT M02/M05 A3028 RMK A01 T10201054  RH  077%=      5-min Rain = 0
KBY1 151433Z 28005KT M02/M05 A3028 RMK A01 T10191054  RH  077%=      5-min Rain = 0
KBY1 151434Z 27006KT M02/M05 A3028 RMK A01 T10181054  RH  076%=      5-min Rain = 0
KBY1 151435Z 27006KT M02/M06 A3028 RMK A01 T10171055  RH  076%=      5-min Rain = 0
KBY1 151436Z 27007KT M02/M06 A3028 RMK A01 T10171055  RH  075%=      5-min Rain = 0
KBY1 151437Z 27007KT M02/M06 A3028 RMK A01 T10171055  RH  075%=      5-min Rain = 0
KBY1 151438Z 27006KT M02/M06 A3028 RMK A01 T10171055  RH  075%=      5-min Rain = 0
KBY1 151439Z 27006KT M02/M05 A3028 RMK A01 T10171054  RH  076%=      5-min Rain = 0
KBY1 151440Z 27007KT M02/M05 A3028 RMK A01 T10161054  RH  075%=      5-min Rain = 0
KBY1 151441Z 27007KT M02/M05 A3028 RMK A01 T10161054  RH  075%=      5-min Rain = 0
KBY1 151442Z 27007KT M02/M06 A3028 RMK A01 T10161055  RH  075%=      5-min Rain = 0
KBY1 151443Z 27008KT M02/M05 A3028 RMK A01 T10151054  RH  075%=      5-min Rain = 0
KBY1 151444Z 27008KT M01/M05 A3028 RMK A01 T10141053  RH  075%=      5-min Rain = 0
KBY1 151445Z 27009KT M01/M05 A3028 RMK A01 T10131053  RH  075%=      5-min Rain = 0
KBY1 151446Z 27009KT M01/M05 A3028 RMK A01 T10131054  RH  074%=      5-min Rain = 0
KBY1 151447Z 27009KT M01/M05 A3028 RMK A01 T10131054  RH  073%=      5-min Rain = 0
KBY1 151448Z 27009KT M01/M06 A3028 RMK A01 T10121055  RH  073%=      5-min Rain = 0
KBY1 151449Z 27009KT M01/M06 A3028 RMK A01 T10121055  RH  073%=      5-min Rain = 0
KBY1 151450Z 27009KT M01/M05 A3028 RMK A01 T10121054  RH  073%=      5-min Rain = 0
KBY1 151451Z 26007KT M01/M05 A3028 RMK A01 T10111053  RH  073%=      5-min Rain = 0
KBY1 151452Z 26008KT M01/M05 A3028 RMK A01 T10111053  RH  073%=      5-min Rain = 0
KBY1 151453Z 27008KT M01/M05 A3028 RMK A01 T10091053  RH  072%=      5-min Rain = 0
KBY1 151454Z 27008KT M01/M05 A3028 RMK A01 T10091053  RH  072%=      5-min Rain = 0
KBY1 151455Z 27008KT M01/M05 A3028 RMK A01 T10081054  RH  071%=      5-min Rain = 0
KBY1 151456Z 27008KT M01/M05 A3028 RMK A01 T10091054  RH  071%=      5-min Rain = 0
KBY1 151457Z 27008KT M01/M05 A3028 RMK A01 T10081054  RH  071%=      5-min Rain = 0
KBY1 151458Z 27007KT M01/M05 A3028 RMK A01 T10081054  RH  071%=      5-min Rain = 0
KBY1 151459Z 27008KT M01/M05 A3028 RMK A01 T10071053  RH  071%=      5-min Rain = 0
KBY1 151500Z 27008KT M01/M05 A3028 RMK A01 T10071053  RH  071%=      5-min Rain = 0
KBY1 151501Z 28006KT M01/M05 A3028 RMK A01 T10061053  RH  071%=      5-min Rain = 0
KBY1 151502Z 27007KT M01/M05 A3028 RMK A01 T10051052  RH  071%=      5-min Rain = 0
KBY1 151503Z 28006KT M00/M05 A3028 RMK A01 T10041050  RH  071%=      5-min Rain = 0
KBY1 151504Z 28005KT M00/M05 A3028 RMK A01 T10031051  RH  070%=      5-min Rain = 0
KBY1 151505Z 27006KT M00/M05 A3028 RMK A01 T10031051  RH  070%=      5-min Rain = 0
KBY1 151506Z 28007KT M00/M05 A3028 RMK A01 T10021052  RH  069%=      5-min Rain = 0
KBY1 151507Z 28006KT M00/M05 A3028 RMK A01 T10011050  RH  070%=      5-min Rain = 0
KBY1 151508Z 28006KT 00/05 A3028 RMK A01 T00000-49  RH  069%=      5-min Rain = 0
KBY1 151509Z 28006KT 00/M05 A3028 RMK A01 T00011049  RH  069%=      5-min Rain = 0
KBY1 151510Z 27006KT 00/M05 A3028 RMK A01 T00021047  RH  069%=      5-min Rain = 0
KBY1 151511Z 26007KT 00/M05 A3028 RMK A01 T00031048  RH  069%=      5-min Rain = 0
KBY1 151512Z 27006KT 00/M05 A3028 RMK A01 T00031049  RH  068%=      5-min Rain = 0
KBY1 151513Z 27006KT 00/M05 A3028 RMK A01 T00031048  RH  068%=      5-min Rain = 0
KBY1 151514Z 28006KT 00/M05 A3028 RMK A01 T00041046  RH  069%=      5-min Rain = 0
KBY1 151515Z 26006KT 01/M05 A3028 RMK A01 T00061045  RH  069%=      5-min Rain = 0
KBY1 151516Z 26007KT 01/M05 A3028 RMK A01 T00071047  RH  068%=      5-min Rain = 0
KBY1 151517Z 27006KT 01/M05 A3028 RMK A01 T00071046  RH  068%=      5-min Rain = 0
KBY1 151518Z 27005KT 01/M05 A3028 RMK A01 T00071045  RH  068%=      5-min Rain = 0
KBY1 151519Z 27007KT 01/M04 A3028 RMK A01 T00091043  RH  068%=      5-min Rain = 0
KBY1 151520Z 28007KT 01/M05 A3028 RMK A01 T00101045  RH  067%=      5-min Rain = 0
KBY1 151521Z 27006KT 01/M04 A3028 RMK A01 T00101044  RH  067%=      5-min Rain = 0
KBY1 151522Z 26006KT 01/M04 A3028 RMK A01 T00111044  RH  067%=      5-min Rain = 0
KBY1 151523Z 27007KT 01/M04 A3028 RMK A01 T00111043  RH  067%=      5-min Rain = 0
KBY1 151524Z 26007KT 01/M04 A3028 RMK A01 T00111044  RH  067%=      5-min Rain = 0
KBY1 151525Z 27006KT 01/M04 A3028 RMK A01 T00121042  RH  067%=      5-min Rain = 0
KBY1 151526Z 27007KT 01/M04 A3028 RMK A01 T00141041  RH  067%=      5-min Rain = 0
KBY1 151527Z 27007KT 02/M04 A3028 RMK A01 T00151042  RH  066%=      5-min Rain = 0
KBY1 151528Z 28005KT 02/M04 A3028 RMK A01 T00151042  RH  065%=      5-min Rain = 0
KBY1 151529Z 29005KT 02/M04 A3028 RMK A01 T00171041  RH  066%=      5-min Rain = 0
KBY1 151530Z 27006KT 02/M04 A3028 RMK A01 T00181041  RH  065%=      5-min Rain = 0
KBY1 151531Z 28008KT 02/M04 A3028 RMK A01 T00181044  RH  063%=      5-min Rain = 0
KBY1 151532Z 28006KT 02/M05 A3028 RMK A01 T00171046  RH  063%=      5-min Rain = 0
KBY1 151533Z 28006KT 02/M05 A3028 RMK A01 T00171046  RH  063%=      5-min Rain = 0
KBY1 151534Z 27007KT 02/M05 A3028 RMK A01 T00171045  RH  063%=      5-min Rain = 0
KBY1 151535Z 28007KT 02/M05 A3028 RMK A01 T00171046  RH  063%=      5-min Rain = 0
KBY1 151536Z 28007KT 02/M05 A3028 RMK A01 T00171046  RH  063%=      5-min Rain = 0
KBY1 151537Z 27008KT 02/M05 A3028 RMK A01 T00171046  RH  063%=      5-min Rain = 0
KBY1 151538Z 27008KT 02/M05 A3028 RMK A01 T00171048  RH  062%=      5-min Rain = 0
KBY1 151539Z 27009KT 02/M05 A3028 RMK A01 T00171047  RH  063%=      5-min Rain = 0
KBY1 151540Z 27009KT 02/M05 A3028 RMK A01 T00171046  RH  063%=      5-min Rain = 0
KBY1 151541Z 27009KT 02/M05 A3028 RMK A01 T00171045  RH  063%=      5-min Rain = 0
KBY1 151542Z 28007KT 02/M05 A3028 RMK A01 T00171046  RH  063%=      5-min Rain = 0
KBY1 151543Z 28008KT 02/M04 A3028 RMK A01 T00191044  RH  063%=      5-min Rain = 0
KBY1 151544Z 27007KT 02/M04 A3028 RMK A01 T00201042  RH  064%=      5-min Rain = 0
KBY1 151545Z 28009KT 02/M04 A3028 RMK A01 T00221043  RH  062%=      5-min Rain = 0
KBY1 151546Z 27010KT 02/M05 A3028 RMK A01 T00221045  RH  061%=      5-min Rain = 0
KBY1 151547Z 27009KT 02/M05 A3028 RMK A01 T00201046  RH  061%=      5-min Rain = 0
KBY1 151548Z 28008KT 02/M05 A3028 RMK A01 T00201045  RH  062%=      5-min Rain = 0
KBY1 151549Z 28008KT 02/M04 A3028 RMK A01 T00211044  RH  062%=      5-min Rain = 0
KBY1 151550Z 28007KT 02/M04 A3028 RMK A01 T00211043  RH  062%=      5-min Rain = 0
KBY1 151551Z 27008KT 02/M04 A3028 RMK A01 T00221042  RH  062%=      5-min Rain = 0
KBY1 151552Z 28008KT 02/M04 A3028 RMK A01 T00231043  RH  062%=      5-min Rain = 0
KBY1 151553Z 27007KT 02/M04 A3028 RMK A01 T00231044  RH  061%=      5-min Rain = 0
KBY1 151554Z 28007KT 02/M04 A3028 RMK A01 T00241042  RH  062%=      5-min Rain = 0
KBY1 151555Z 28008KT 03/M04 A3028 RMK A01 T00261041  RH  062%=      5-min Rain = 0
KBY1 151556Z 27009KT 03/M04 A3028 RMK A01 T00261041  RH  061%=      5-min Rain = 0
KBY1 151557Z 27010KT 03/M04 A3028 RMK A01 T00261040  RH  062%=      5-min Rain = 0
KBY1 151558Z 27008KT 03/M04 A3028 RMK A01 T00261042  RH  061%=      5-min Rain = 0
KBY1 151559Z 27008KT 03/M04 A3028 RMK A01 T00261040  RH  061%=      5-min Rain = 0
KBY1 151600Z 28006KT 03/M04 A3028 RMK A01 T00271040  RH  061%=      5-min Rain = 0
KBY1 151601Z 27008KT 03/M04 A3028 RMK A01 T00281039  RH  061%=      5-min Rain = 0
KBY1 151602Z 26008KT 03/M04 A3028 RMK A01 T00291039  RH  061%=      5-min Rain = 0
KBY1 151603Z 26008KT 03/M04 A3028 RMK A01 T00311035  RH  062%=      5-min Rain = 0
KBY1 151604Z 26009KT 03/M04 A3028 RMK A01 T00331038  RH  060%=      5-min Rain = 0
KBY1 151605Z 26008KT 03/M04 A3028 RMK A01 T00331040  RH  059%=      5-min Rain = 0
KBY1 151606Z 26008KT 03/M04 A3028 RMK A01 T00331039  RH  059%=      5-min Rain = 0
KBY1 151607Z 26008KT 03/M04 A3028 RMK A01 T00331040  RH  059%=      5-min Rain = 0
KBY1 151608Z 26009KT 03/M04 A3028 RMK A01 T00341036  RH  060%=      5-min Rain = 0
KBY1 151609Z 27009KT 04/M04 A3028 RMK A01 T00351038  RH  059%=      5-min Rain = 0
KBY1 151610Z 27008KT 04/M04 A3028 RMK A01 T00351038  RH  059%=      5-min Rain = 0
KBY1 151611Z 26009KT 04/M04 A3028 RMK A01 T00351038  RH  059%=      5-min Rain = 0
KBY1 151612Z 26008KT 03/M04 A3028 RMK A01 T00341038  RH  059%=      5-min Rain = 0
KBY1 151613Z 26009KT 03/M04 A3028 RMK A01 T00341039  RH  059%=      5-min Rain = 0
KBY1 151614Z 26008KT 04/M04 A3028 RMK A01 T00351039  RH  058%=      5-min Rain = 0
KBY1 151615Z 26006KT 04/M04 A3028 RMK A01 T00361038  RH  058%=      5-min Rain = 0
KBY1 151616Z 27008KT 04/M04 A3028 RMK A01 T00381038  RH  058%=      5-min Rain = 0
KBY1 151617Z 27008KT 04/M04 A3028 RMK A01 T00381043  RH  056%=      5-min Rain = 0
KBY1 151618Z 27008KT 04/M04 A3028 RMK A01 T00391042  RH  055%=      5-min Rain = 0
KBY1 151619Z 26007KT 04/M04 A3028 RMK A01 T00391044  RH  055%=      5-min Rain = 0
KBY1 151620Z 26008KT 04/M04 A3028 RMK A01 T00391042  RH  055%=      5-min Rain = 0
KBY1 151621Z 26008KT 04/M04 A3028 RMK A01 T00411041  RH  055%=      5-min Rain = 0
KBY1 151622Z 28007KT 04/M04 A3028 RMK A01 T00411042  RH  055%=      5-min Rain = 0
KBY1 151623Z 29007KT 04/M04 A3028 RMK A01 T00421041  RH  054%=      5-min Rain = 0
KBY1 151624Z 29008KT 04/M04 A3028 RMK A01 T00431042  RH  054%=      5-min Rain = 0
KBY1 151625Z 29007KT 04/M04 A3028 RMK A01 T00431042  RH  054%=      5-min Rain = 0
KBY1 151626Z 27006KT 04/M04 A3028 RMK A01 T00441039  RH  055%=      5-min Rain = 0
KBY1 151627Z 27007KT 04/M04 A3028 RMK A01 T00441041  RH  054%=      5-min Rain = 0
KBY1 151628Z 28005KT 04/M04 A3028 RMK A01 T00441040  RH  055%=      5-min Rain = 0
KBY1 151629Z 29004KT 05/M04 A3028 RMK A01 T00451039  RH  055%=      5-min Rain = 0
KBY1 151630Z 27006KT 05/M04 A3028 RMK A01 T00471035  RH  055%=      5-min Rain = 0
KBY1 151631Z 27005KT 05/M04 A3028 RMK A01 T00501035  RH  054%=      5-min Rain = 0
KBY1 151632Z 24006KT 05/M03 A3028 RMK A01 T00511034  RH  054%=      5-min Rain = 0
KBY1 151633Z 26006KT 05/M04 A3028 RMK A01 T00511035  RH  054%=      5-min Rain = 0
KBY1 151634Z 28005KT 05/M04 A3028 RMK A01 T00521037  RH  053%=      5-min Rain = 0
KBY1 151635Z 26006KT 05/M04 A3028 RMK A01 T00521036  RH  053%=      5-min Rain = 0
KBY1 151636Z 29007KT 05/M04 A3028 RMK A01 T00521037  RH  053%=      5-min Rain = 0
KBY1 151637Z 26006KT 05/M04 A3028 RMK A01 T00511038  RH  053%=      5-min Rain = 0
KBY1 151638Z 28006KT 05/M04 A3028 RMK A01 T00511037  RH  053%=      5-min Rain = 0
KBY1 151639Z 29006KT 05/M04 A3028 RMK A01 T00521036  RH  053%=      5-min Rain = 0
KBY1 151640Z 29006KT 05/M04 A3028 RMK A01 T00521038  RH  052%=      5-min Rain = 0
KBY1 151641Z 30005KT 05/M04 A3028 RMK A01 T00521036  RH  053%=      5-min Rain = 0
KBY1 151642Z 28007KT 06/M03 A3028 RMK A01 T00551032  RH  054%=      5-min Rain = 0
KBY1 151643Z 29007KT 06/M03 A3027 RMK A01 T00551034  RH  053%=      5-min Rain = 0
KBY1 151644Z 27007KT 06/M03 A3027 RMK A01 T00561034  RH  052%=      5-min Rain = 0
KBY1 151645Z 27008KT 06/M03 A3027 RMK A01 T00561034  RH  052%=      5-min Rain = 0
KBY1 151646Z 26007KT 06/M04 A3027 RMK A01 T00551037  RH  051%=      5-min Rain = 0
KBY1 151647Z 26006KT 05/M04 A3027 RMK A01 T00541035  RH  053%=      5-min Rain = 0
KBY1 151648Z 29007KT 06/M03 A3027 RMK A01 T00551034  RH  053%=      5-min Rain = 0
KBY1 151649Z 29007KT 06/M04 A3027 RMK A01 T00551036  RH  052%=      5-min Rain = 0
KBY1 151650Z 29005KT 06/M03 A3027 RMK A01 T00571033  RH  053%=      5-min Rain = 0
KBY1 151651Z 28006KT 06/M03 A3027 RMK A01 T00611031  RH  052%=      5-min Rain = 0
KBY1 151652Z 27007KT 06/M04 A3027 RMK A01 T00621036  RH  050%=      5-min Rain = 0
KBY1 151653Z 26006KT 06/M04 A3027 RMK A01 T00591038  RH  050%=      5-min Rain = 0
KBY1 151654Z 26007KT 06/M04 A3027 RMK A01 T00601036  RH  050%=      5-min Rain = 0
KBY1 151655Z 28005KT 06/M04 A3027 RMK A01 T00601037  RH  050%=      5-min Rain = 0
KBY1 151656Z 26006KT 06/M04 A3027 RMK A01 T00601035  RH  051%=      5-min Rain = 0
KBY1 151657Z 28006KT 06/M04 A3027 RMK A01 T00601035  RH  050%=      5-min Rain = 0
KBY1 151658Z 29006KT 06/M03 A3027 RMK A01 T00601034  RH  051%=      5-min Rain = 0
KBY1 151659Z 30006KT 06/M03 A3027 RMK A01 T00611034  RH  051%=      5-min Rain = 0
KBY1 151700Z 29006KT 06/M03 A3027 RMK A01 T00621031  RH  051%=      5-min Rain = 0
KBY1 151701Z 28005KT 06/M03 A3027 RMK A01 T00641031  RH  050%=      5-min Rain = 0
KBY1 151702Z 28007KT 07/M03 A3027 RMK A01 T00661031  RH  050%=      5-min Rain = 0
KBY1 151703Z 27007KT 07/M03 A3027 RMK A01 T00671033  RH  049%=      5-min Rain = 0
KBY1 151704Z 26008KT 07/M04 A3027 RMK A01 T00661035  RH  048%=      5-min Rain = 0
KBY1 151705Z 26006KT 07/M03 A3027 RMK A01 T00661034  RH  049%=      5-min Rain = 0
KBY1 151706Z 27008KT 07/M04 A3027 RMK A01 T00671035  RH  048%=      5-min Rain = 0
KBY1 151707Z 27007KT 07/M03 A3027 RMK A01 T00671034  RH  048%=      5-min Rain = 0
KBY1 151708Z 27006KT 07/M03 A3027 RMK A01 T00671034  RH  049%=      5-min Rain = 0
KBY1 151709Z 27004KT 07/M03 A3027 RMK A01 T00671034  RH  049%=      5-min Rain = 0
KBY1 151710Z 26005KT 07/M04 A3027 RMK A01 T00661035  RH  048%=      5-min Rain = 0
KBY1 151711Z 26006KT 07/M03 A3027 RMK A01 T00661034  RH  049%=      5-min Rain = 0
KBY1 151712Z 26006KT 07/M03 A3026 RMK A01 T00691030  RH  049%=      5-min Rain = 0
KBY1 151713Z 24005KT 07/M03 A3026 RMK A01 T00701029  RH  049%=      5-min Rain = 0
KBY1 151714Z 27006KT 07/M03 A3026 RMK A01 T00731029  RH  048%=      5-min Rain = 0
KBY1 151715Z 26005KT 07/M03 A3026 RMK A01 T00731032  RH  047%=      5-min Rain = 0
KBY1 151716Z 27004KT 07/M03 A3026 RMK A01 T00731027  RH  049%=      5-min Rain = 0
KBY1 151717Z 28007KT 08/M03 A3026 RMK A01 T00751031  RH  047%=      5-min Rain = 0
KBY1 151718Z 28005KT 08/M03 A3026 RMK A01 T00751034  RH  046%=      5-min Rain = 0
KBY1 151719Z 30006KT 07/M04 A3026 RMK A01 T00741035  RH  046%=      5-min Rain = 0
KBY1 151720Z 26007KT 07/M04 A3026 RMK A01 T00731035  RH  046%=      5-min Rain = 0
KBY1 151721Z 26007KT 08/M03 A3026 RMK A01 T00751033  RH  046%=      5-min Rain = 0
KBY1 151722Z 27006KT 08/M04 A3026 RMK A01 T00751038  RH  045%=      5-min Rain = 0
KBY1 151723Z 26005KT 07/M04 A3026 RMK A01 T00741035  RH  046%=      5-min Rain = 0
KBY1 151724Z 30006KT 08/M03 A3026 RMK A01 T00761032  RH  046%=      5-min Rain = 0
KBY1 151725Z 30005KT 08/M03 A3026 RMK A01 T00771033  RH  046%=      5-min Rain = 0
KBY1 151726Z 29004KT 08/M03 A3026 RMK A01 T00791032  RH  046%=      5-min Rain = 0
KBY1 151727Z 24007KT 08/M03 A3026 RMK A01 T00801031  RH  045%=      5-min Rain = 0
KBY1 151728Z 25005KT 08/M03 A3026 RMK A01 T00811031  RH  045%=      5-min Rain = 0
KBY1 151729Z 24005KT 08/M04 A3026 RMK A01 T00801036  RH  044%=      5-min Rain = 0
KBY1 151730Z 25007KT 08/M04 A3026 RMK A01 T00791036  RH  044%=      5-min Rain = 0
KBY1 151731Z 27006KT 08/M04 A3026 RMK A01 T00811035  RH  044%=      5-min Rain = 0
KBY1 151732Z 26005KT 08/M04 A3026 RMK A01 T00821038  RH  043%=      5-min Rain = 0
KBY1 151733Z 27009KT 08/M04 A3026 RMK A01 T00821037  RH  043%=      5-min Rain = 0
KBY1 151734Z 27007KT 08/M04 A3026 RMK A01 T00821039  RH  042%=      5-min Rain = 0
KBY1 151735Z 28006KT 08/M04 A3026 RMK A01 T00811039  RH  042%=      5-min Rain = 0
KBY1 151736Z 25006KT 08/M04 A3026 RMK A01 T00811038  RH  043%=      5-min Rain = 0
KBY1 151737Z 26003KT 08/M04 A3026 RMK A01 T00811037  RH  043%=      5-min Rain = 0
KBY1 151738Z 25006KT 08/M04 A3026 RMK A01 T00831036  RH  043%=      5-min Rain = 0
KBY1 151739Z 25005KT 08/M03 A3026 RMK A01 T00841034  RH  043%=      5-min Rain = 0
KBY1 151740Z 28008KT 09/M04 A3026 RMK A01 T00871035  RH  042%=      5-min Rain = 0
KBY1 151741Z 28007KT 09/M04 A3026 RMK A01 T00871039  RH  041%=      5-min Rain = 0
KBY1 151742Z 29006KT 09/M04 A3026 RMK A01 T00861040  RH  041%=      5-min Rain = 0
KBY1 151743Z 27006KT 09/M04 A3026 RMK A01 T00861040  RH  041%=      5-min Rain = 0
KBY1 151744Z 27007KT 09/M04 A3025 RMK A01 T00861042  RH  040%=      5-min Rain = 0
KBY1 151745Z 28006KT 09/M04 A3025 RMK A01 T00871038  RH  041%=      5-min Rain = 0
KBY1 151746Z 27008KT 09/M04 A3025 RMK A01 T00881040  RH  040%=      5-min Rain = 0
KBY1 151747Z 29005KT 09/M04 A3025 RMK A01 T00871041  RH  040%=      5-min Rain = 0
KBY1 151748Z 29008KT 09/M04 A3025 RMK A01 T00881042  RH  040%=      5-min Rain = 0
KBY1 151749Z 27006KT 09/M04 A3025 RMK A01 T00891038  RH  041%=      5-min Rain = 0
KBY1 151750Z 28005KT 09/M04 A3025 RMK A01 T00911039  RH  040%=      5-min Rain = 0
KBY1 151751Z 29005KT 09/M04 A3025 RMK A01 T00901041  RH  039%=      5-min Rain = 0
KBY1 151752Z 28004KT 09/M04 A3025 RMK A01 T00901041  RH  039%=      5-min Rain = 0
KBY1 151753Z 27007KT 09/M04 A3025 RMK A01 T00911038  RH  040%=      5-min Rain = 0
KBY1 151754Z 26005KT 09/M04 A3025 RMK A01 T00931041  RH  039%=      5-min Rain = 0
KBY1 151755Z 28004KT 09/M04 A3025 RMK A01 T00931043  RH  038%=      5-min Rain = 0
KBY1 151756Z 25002KT 09/M04 A3025 RMK A01 T00931041  RH  038%=      5-min Rain = 0
KBY1 151757Z 25005KT 10/M04 A3025 RMK A01 T00951038  RH  039%=      5-min Rain = 0
KBY1 151758Z 27006KT 10/M04 A3025 RMK A01 T00961041  RH  038%=      5-min Rain = 0
KBY1 151759Z 25006KT 10/M04 A3025 RMK A01 T00961041  RH  038%=      5-min Rain = 0
KBY1 151800Z 24007KT 10/M04 A3025 RMK A01 T00971039  RH  038%=      5-min Rain = 0
KBY1 151801Z 25006KT 10/M04 A3025 RMK A01 T00981036  RH  039%=      5-min Rain = 0
KBY1 151802Z 27004KT 10/M04 A3025 RMK A01 T01001040  RH  037%=      5-min Rain = 0
KBY1 151803Z 26005KT 10/M04 A3025 RMK A01 T00981041  RH  037%=      5-min Rain = 0
KBY1 151804Z 27007KT 10/M04 A3024 RMK A01 T00981039  RH  038%=      5-min Rain = 0
KBY1 151805Z 27006KT 10/M05 A3024 RMK A01 T01001045  RH  036%=      5-min Rain = 0
KBY1 151806Z 26005KT 10/M05 A3024 RMK A01 T01011050  RH  034%=      5-min Rain = 0
KBY1 151807Z 29004KT 10/M05 A3024 RMK A01 T01011051  RH  034%=      5-min Rain = 0
KBY1 151808Z 27005KT 10/M05 A3024 RMK A01 T01011049  RH  034%=      5-min Rain = 0
KBY1 151809Z 26006KT 10/M05 A3024 RMK A01 T01021050  RH  034%=      5-min Rain = 0
KBY1 151810Z 27006KT 10/M05 A3024 RMK A01 T01011049  RH  034%=      5-min Rain = 0
KBY1 151811Z 29004KT 10/M05 A3024 RMK A01 T01001052  RH  034%=      5-min Rain = 0
KBY1 151812Z 28004KT 10/M06 A3024 RMK A01 T01001055  RH  033%=      5-min Rain = 0
KBY1 151813Z 26007KT 10/M05 A3024 RMK A01 T01001052  RH  034%=      5-min Rain = 0
KBY1 151814Z 27008KT 10/M05 A3024 RMK A01 T01001051  RH  034%=      5-min Rain = 0
KBY1 151815Z 28007KT 10/M05 A3024 RMK A01 T01011051  RH  034%=      5-min Rain = 0
KBY1 151816Z 29007KT 10/M05 A3024 RMK A01 T01011054  RH  033%=      5-min Rain = 0
KBY1 151817Z 29006KT 10/M05 A3024 RMK A01 T01011050  RH  034%=      5-min Rain = 0
KBY1 151818Z 27006KT 10/M05 A3024 RMK A01 T01021049  RH  034%=      5-min Rain = 0
KBY1 151819Z 27004KT 10/M05 A3024 RMK A01 T01011049  RH  034%=      5-min Rain = 0
KBY1 151820Z 29009KT 10/M05 A3023 RMK A01 T01011049  RH  034%=      5-min Rain = 0
KBY1 151821Z 29006KT 10/M05 A3023 RMK A01 T01021052  RH  033%=      5-min Rain = 0
KBY1 151822Z 29008KT 10/M05 A3023 RMK A01 T01011049  RH  034%=      5-min Rain = 0
KBY1 151823Z 30005KT 10/M05 A3023 RMK A01 T01021052  RH  033%=      5-min Rain = 0
KBY1 151824Z 26007KT 10/M05 A3023 RMK A01 T01021048  RH  034%=      5-min Rain = 0
KBY1 151825Z 25006KT 10/M05 A3023 RMK A01 T01031049  RH  034%=      5-min Rain = 0
KBY1 151826Z 26005KT 10/M05 A3023 RMK A01 T01031048  RH  034%=      5-min Rain = 0
KBY1 151827Z 27002KT 10/M05 A3023 RMK A01 T01031052  RH  033%=      5-min Rain = 0
KBY1 151828Z 30004KT 10/M05 A3023 RMK A01 T01031047  RH  034%=      5-min Rain = 0
KBY1 151829Z 30006KT 10/M05 A3023 RMK A01 T01041054  RH  032%=      5-min Rain = 0
KBY1 151830Z 29007KT 11/M05 A3023 RMK A01 T01071045  RH  034%=      5-min Rain = 0
KBY1 151831Z 31007KT 11/M05 A3023 RMK A01 T01081051  RH  032%=      5-min Rain = 0
KBY1 151832Z 28005G10KT 11/M05 A3023 RMK A01 T01071050  RH  033%=      5-min Rain = 0
KBY1 151833Z 24008KT 11/M05 A3023 RMK A01 T01071047  RH  034%=      5-min Rain = 0
KBY1 151834Z 27006KT 11/M05 A3023 RMK A01 T01081048  RH  033%=      5-min Rain = 0
KBY1 151835Z 26006KT 11/M05 A3022 RMK A01 T01081046  RH  034%=      5-min Rain = 0
KBY1 151836Z 27004KT 11/M05 A3022 RMK A01 T01071047  RH  033%=      5-min Rain = 0
KBY1 151837Z 30006KT 11/M05 A3022 RMK A01 T01071049  RH  033%=      5-min Rain = 0
KBY1 151838Z 29007KT 11/M05 A3022 RMK A01 T01061050  RH  033%=      5-min Rain = 0
KBY1 151839Z 30005KT 11/M05 A3022 RMK A01 T01071047  RH  034%=      5-min Rain = 0
KBY1 151840Z 33006KT 11/M04 A3022 RMK A01 T01091044  RH  034%=      5-min Rain = 0
KBY1 151841Z 32006KT 11/M05 A3022 RMK A01 T01101047  RH  033%=      5-min Rain = 0
KBY1 151842Z 33009KT 11/M05 A3022 RMK A01 T01101049  RH  032%=      5-min Rain = 0
KBY1 151843Z 31009KT 11/M04 A3022 RMK A01 T01101044  RH  033%=      5-min Rain = 0
KBY1 151844Z 30006KT 11/M05 A3022 RMK A01 T01121046  RH  033%=      5-min Rain = 0
KBY1 151845Z 31006KT 11/M04 A3022 RMK A01 T01121044  RH  033%=      5-min Rain = 0
KBY1 151846Z 32005KT 11/M05 A3022 RMK A01 T01121046  RH  033%=      5-min Rain = 0
KBY1 151847Z 32004KT 11/M05 A3022 RMK A01 T01101053  RH  031%=      5-min Rain = 0
KBY1 151848Z 27005KT 11/M05 A3022 RMK A01 T01091048  RH  033%=      5-min Rain = 0
KBY1 151849Z 28003KT 11/M04 A3022 RMK A01 T01121040  RH  034%=      5-min Rain = 0
KBY1 151850Z 29004KT 12/M04 A3022 RMK A01 T01151044  RH  033%=      5-min Rain = 0
KBY1 151851Z 26007KT 12/M04 A3022 RMK A01 T01171042  RH  033%=      5-min Rain = 0
KBY1 151852Z 28007KT 12/M04 A3021 RMK A01 T01181040  RH  033%=      5-min Rain = 0
KBY1 151853Z 29005KT 12/M04 A3021 RMK A01 T01191038  RH  033%=      5-min Rain = 0
KBY1 151854Z 28006KT 12/M04 A3021 RMK A01 T01211038  RH  033%=      5-min Rain = 0
KBY1 151855Z 26005KT 12/M05 A3021 RMK A01 T01191045  RH  031%=      5-min Rain = 0
KBY1 151856Z 26004KT 12/M05 A3021 RMK A01 T01171045  RH  032%=      5-min Rain = 0
KBY1 151857Z 27007KT 12/M04 A3021 RMK A01 T01171043  RH  032%=      5-min Rain = 0
KBY1 151858Z 28007KT 12/M04 A3021 RMK A01 T01171042  RH  033%=      5-min Rain = 0
KBY1 151859Z 26010KT 12/M04 A3021 RMK A01 T01181043  RH  032%=      5-min Rain = 0
KBY1 151900Z 25008KT 12/M05 A3021 RMK A01 T01171045  RH  032%=      5-min Rain = 0
KBY1 151901Z 27008KT 12/M04 A3021 RMK A01 T01161043  RH  033%=      5-min Rain = 0
KBY1 151902Z 29008KT 12/M04 A3021 RMK A01 T01161044  RH  032%=      5-min Rain = 0
KBY1 151903Z 31006KT 12/M04 A3021 RMK A01 T01171041  RH  033%=      5-min Rain = 0
KBY1 151904Z 31006KT 12/M04 A3021 RMK A01 T01181043  RH  032%=      5-min Rain = 0
KBY1 151905Z 32003KT 12/M05 A3021 RMK A01 T01181047  RH  031%=      5-min Rain = 0
KBY1 151906Z 31003KT 12/M04 A3021 RMK A01 T01171041  RH  033%=      5-min Rain = 0
KBY1 151907Z 28005KT 12/M04 A302 RMK A01 T01181044  RH  032%=      5-min Rain = 0
KBY1 151908Z 26008KT 12/M04 A302 RMK A01 T01201043  RH  032%=      5-min Rain = 0
KBY1 151909Z 25007KT 12/M05 A302 RMK A01 T01181049  RH  031%=      5-min Rain = 0
KBY1 151910Z 26006KT 12/M05 A302 RMK A01 T01161047  RH  032%=      5-min Rain = 0
KBY1 151911Z 26005KT 12/M05 A302 RMK A01 T01161047  RH  032%=      5-min Rain = 0
KBY1 151912Z 28002KT 12/M05 A302 RMK A01 T01171045  RH  032%=      5-min Rain = 0
KBY1 151913Z 27002KT 12/M05 A302 RMK A01 T01171049  RH  031%=      5-min Rain = 0
KBY1 151914Z 27002KT 12/M05 A302 RMK A01 T01171049  RH  031%=      5-min Rain = 0
KBY1 151915Z 27006KT 12/M04 A302 RMK A01 T01191043  RH  032%=      5-min Rain = 0
KBY1 151916Z 29007KT 12/M04 A302 RMK A01 T01221043  RH  031%=      5-min Rain = 0
KBY1 151917Z 33006KT 12/M05 A302 RMK A01 T01231046  RH  030%=      5-min Rain = 0
KBY1 151918Z 33004KT 12/M05 A302 RMK A01 T01211052  RH  029%=      5-min Rain = 0
KBY1 151919Z 30004KT 12/M05 A302 RMK A01 T01201050  RH  030%=      5-min Rain = 0
KBY1 151920Z 28004KT 12/M04 A3019 RMK A01 T01221043  RH  031%=      5-min Rain = 0
KBY1 151921Z 28005KT 12/M04 A3019 RMK A01 T01241041  RH  031%=      5-min Rain = 0
KBY1 151922Z 29005KT 13/M05 A3019 RMK A01 T01251046  RH  030%=      5-min Rain = 0
KBY1 151923Z 33005KT 13/M04 A3019 RMK A01 T01251043  RH  031%=      5-min Rain = 0
KBY1 151924Z 28004KT 13/M05 A3019 RMK A01 T01251046  RH  030%=      5-min Rain = 0
KBY1 151925Z 29005KT 13/M04 A3019 RMK A01 T01261041  RH  031%=      5-min Rain = 0
KBY1 151926Z 31006KT 13/M05 A3019 RMK A01 T01261048  RH  029%=      5-min Rain = 0
KBY1 151927Z 26004KT 12/M05 A3019 RMK A01 T01221051  RH  029%=      5-min Rain = 0
KBY1 151928Z 24007KT 12/M04 A3019 RMK A01 T01231043  RH  031%=      5-min Rain = 0
KBY1 151929Z 24007KT 13/M05 A3019 RMK A01 T01251046  RH  030%=      5-min Rain = 0
KBY1 151930Z 27005KT 13/M05 A3019 RMK A01 T01251049  RH  029%=      5-min Rain = 0
KBY1 151931Z 28004KT 13/M05 A3019 RMK A01 T01251046  RH  030%=      5-min Rain = 0
KBY1 151932Z 28004KT 12/M05 A3019 RMK A01 T01241046  RH  030%=      5-min Rain = 0
KBY1 151933Z 35006KT 13/M05 A3019 RMK A01 T01251047  RH  030%=      5-min Rain = 0
KBY1 151934Z 00006KT 13/M05 A3019 RMK A01 T01251047  RH  030%=      5-min Rain = 0
KBY1 151935Z 35005KT 13/M04 A3018 RMK A01 T01261043  RH  031%=      5-min Rain = 0
KBY1 151936Z 32003KT 13/M05 A3018 RMK A01 T01271050  RH  029%=      5-min Rain = 0
KBY1 151937Z 32007KT 13/M05 A3018 RMK A01 T01261048  RH  029%=      5-min Rain = 0
KBY1 151938Z 32006KT 13/M05 A3018 RMK A01 T01261050  RH  029%=      5-min Rain = 0
KBY1 151939Z 31007KT 13/M05 A3018 RMK A01 T01271047  RH  029%=      5-min Rain = 0
KBY1 151940Z 29004KT 13/M05 A3018 RMK A01 T01281050  RH  029%=      5-min Rain = 0
KBY1 151941Z 28003KT 13/M05 A3018 RMK A01 T01271050  RH  029%=      5-min Rain = 0
KBY1 151942Z 34005KT 13/M05 A3018 RMK A01 T01271046  RH  030%=      5-min Rain = 0
KBY1 151943Z 35002KT 13/M05 A3018 RMK A01 T01281050  RH  029%=      5-min Rain = 0
KBY1 151944Z 30003KT 13/M05 A3018 RMK A01 T01281051  RH  028%=      5-min Rain = 0
KBY1 151945Z 27003KT 13/M05 A3018 RMK A01 T01281054  RH  028%=      5-min Rain = 0
KBY1 151946Z 28005KT 13/M05 A3018 RMK A01 T01281045  RH  030%=      5-min Rain = 0
KBY1 151947Z 25004KT 13/M05 A3018 RMK A01 T01291048  RH  029%=      5-min Rain = 0
KBY1 151948Z 23002KT 13/M05 A3018 RMK A01 T01291050  RH  028%=      5-min Rain = 0
KBY1 151949Z 23005KT 13/M05 A3018 RMK A01 T01281049  RH  029%=      5-min Rain = 0
KBY1 151950Z 22005KT 13/M05 A3018 RMK A01 T01301052  RH  028%=      5-min Rain = 0
KBY1 151951Z 20004KT 13/M05 A3018 RMK A01 T01301048  RH  029%=      5-min Rain = 0
KBY1 151952Z 22004KT 13/M04 A3017 RMK A01 T01331043  RH  029%=      5-min Rain = 0
KBY1 151953Z 24003KT 14/M04 A3017 RMK A01 T01371040  RH  029%=      5-min Rain = 0
KBY1 151954Z 24004KT 14/M05 A3017 RMK A01 T01371049  RH  027%=      5-min Rain = 0
KBY1 151955Z 28002KT 14/M05 A3017 RMK A01 T01351050  RH  027%=      5-min Rain = 0
KBY1 151956Z 26004KT 14/M04 A3017 RMK A01 T01351043  RH  029%=      5-min Rain = 0
KBY1 151957Z 26006KT 14/M04 A3017 RMK A01 T01371043  RH  028%=      5-min Rain = 0
KBY1 151958Z 26004KT 14/M05 A3017 RMK A01 T01351050  RH  027%=      5-min Rain = 0
KBY1 151959Z 25002KT 13/M05 A3017 RMK A01 T01331046  RH  028%=      5-min Rain = 0
KBY1 152000Z 25002G7KT 13/M05 A3017 RMK A01 T01341048  RH  028%=      5-min Rain = 0
KBY1 152001Z 30007KT 14/M04 A3017 RMK A01 T01351044  RH  028%=      5-min Rain = 0
KBY1 152002Z 30004KT 14/M04 A3017 RMK A01 T01381044  RH  028%=      5-min Rain = 0
KBY1 152003Z 26003KT 14/M05 A3017 RMK A01 T01381048  RH  027%=      5-min Rain = 0
KBY1 152004Z 30005KT 14/M04 A3017 RMK A01 T01371044  RH  028%=      5-min Rain = 0
KBY1 152005Z 27005KT 14/M05 A3017 RMK A01 T01371047  RH  027%=      5-min Rain = 0
KBY1 152006Z 27009KT 14/M05 A3017 RMK A01 T01371048  RH  028%=      5-min Rain = 0
KBY1 152007Z 27005KT 13/M05 A3017 RMK A01 T01341050  RH  027%=      5-min Rain = 0
KBY1 152008Z 28004KT 13/M05 A3017 RMK A01 T01321050  RH  028%=      5-min Rain = 0
KBY1 152009Z 24005KT 13/M04 A3017 RMK A01 T01321042  RH  029%=      5-min Rain = 0
KBY1 152010Z 24006KT 13/M05 A3017 RMK A01 T01341048  RH  028%=      5-min Rain = 0
KBY1 152011Z 27005KT 13/M05 A3017 RMK A01 T01341048  RH  028%=      5-min Rain = 0
KBY1 152012Z 27004KT 13/M05 A3017 RMK A01 T01341046  RH  028%=      5-min Rain = 0
KBY1 152013Z 31005KT 13/M05 A3016 RMK A01 T01341051  RH  027%=      5-min Rain = 0
KBY1 152014Z 28005KT 13/M05 A3016 RMK A01 T01341051  RH  027%=      5-min Rain = 0
KBY1 152015Z 25005KT 13/M05 A3016 RMK A01 T01341048  RH  028%=      5-min Rain = 0
KBY1 152016Z 24003KT 13/M05 A3016 RMK A01 T01341053  RH  027%=      5-min Rain = 0
KBY1 152017Z 25005KT 13/M05 A3016 RMK A01 T01341050  RH  027%=      5-min Rain = 0
KBY1 152018Z 27005KT 14/M05 A3016 RMK A01 T01361045  RH  028%=      5-min Rain = 0
KBY1 152019Z 32006KT 14/M04 A3016 RMK A01 T01381044  RH  028%=      5-min Rain = 0
KBY1 152020Z 33006KT 14/M05 A3016 RMK A01 T01371051  RH  027%=      5-min Rain = 0
KBY1 152021Z 33005KT 14/M05 A3016 RMK A01 T01351050  RH  027%=      5-min Rain = 0
KBY1 152022Z 28004KT 13/M05 A3016 RMK A01 T01341048  RH  028%=      5-min Rain = 0
KBY1 152023Z 23007KT 14/M05 A3016 RMK A01 T01361049  RH  027%=      5-min Rain = 0
KBY1 152024Z 23005KT 14/M05 A3016 RMK A01 T01361050  RH  027%=      5-min Rain = 0
KBY1 152025Z 22003KT 14/M05 A3016 RMK A01 T01371046  RH  028%=      5-min Rain = 0
KBY1 152026Z 26002KT 14/M05 A3016 RMK A01 T01391048  RH  027%=      5-min Rain = 0
KBY1 152027Z 27003KT 14/M05 A3016 RMK A01 T01391048  RH  027%=      5-min Rain = 0
KBY1 152028Z 26003KT 14/M05 A3016 RMK A01 T01401049  RH  027%=      5-min Rain = 0
KBY1 152029Z 29002KT 14/M05 A3016 RMK A01 T01391054  RH  026%=      5-min Rain = 0
KBY1 152030Z 28003KT 14/M05 A3016 RMK A01 T01391053  RH  026%=      5-min Rain = 0
KBY1 152031Z 22001KT 14/M06 A3016 RMK A01 T01371057  RH  025%=      5-min Rain = 0
KBY1 152032Z 00003KT 14/M06 A3016 RMK A01 T01361055  RH  026%=      5-min Rain = 0
KBY1 152033Z 01005KT 14/M05 A3015 RMK A01 T01371049  RH  027%=      5-min Rain = 0
KBY1 152034Z 34003KT 14/M05 A3015 RMK A01 T01381048  RH  027%=      5-min Rain = 0
KBY1 152035Z 25003KT 14/M05 A3015 RMK A01 T01381052  RH  026%=      5-min Rain = 0
KBY1 152036Z 30005KT 14/M04 A3015 RMK A01 T01401044  RH  028%=      5-min Rain = 0
KBY1 152037Z 31008KT 14/M05 A3015 RMK A01 T01421048  RH  026%=      5-min Rain = 0
KBY1 152038Z 29006KT 14/M05 A3015 RMK A01 T01411052  RH  026%=      5-min Rain = 0
KBY1 152039Z 30005KT 14/M06 A3015 RMK A01 T01371055  RH  026%=      5-min Rain = 0
KBY1 152040Z 32005KT 14/M05 A3015 RMK A01 T01371051  RH  027%=      5-min Rain = 0
KBY1 152041Z 33003KT 14/M05 A3015 RMK A01 T01371050  RH  027%=      5-min Rain = 0
KBY1 152042Z 32003KT 14/M05 A3015 RMK A01 T01371051  RH  027%=      5-min Rain = 0
KBY1 152043Z 32004KT 14/M05 A3015 RMK A01 T01381050  RH  027%=      5-min Rain = 0
KBY1 152044Z 31003KT 14/M05 A3015 RMK A01 T01381049  RH  027%=      5-min Rain = 0
KBY1 152045Z 28004KT 14/M05 A3015 RMK A01 T01391048  RH  027%=      5-min Rain = 0
KBY1 152046Z 27006KT 14/M05 A3015 RMK A01 T01401047  RH  027%=      5-min Rain = 0
KBY1 152047Z 26008KT 14/M05 A3015 RMK A01 T01411046  RH  027%=      5-min Rain = 0
KBY1 152048Z 26009KT 14/M05 A3015 RMK A01 T01411052  RH  026%=      5-min Rain = 0
KBY1 152049Z 27008KT 14/M05 A3015 RMK A01 T01391050  RH  027%=      5-min Rain = 0
KBY1 152050Z 27007KT 14/M05 A3015 RMK A01 T01401046  RH  027%=      5-min Rain = 0
KBY1 152051Z 26007KT 14/M05 A3014 RMK A01 T01411048  RH  027%=      5-min Rain = 0
KBY1 152052Z 27006KT 14/M05 A3014 RMK A01 T01401048  RH  027%=      5-min Rain = 0
KBY1 152053Z 26007KT 14/M05 A3014 RMK A01 T01411048  RH  027%=      5-min Rain = 0
KBY1 152054Z 25006KT 14/M05 A3014 RMK A01 T01411048  RH  027%=      5-min Rain = 0
KBY1 152055Z 25004KT 14/M05 A3014 RMK A01 T01411049  RH  026%=      5-min Rain = 0
KBY1 152056Z 28004KT 14/M05 A3014 RMK A01 T01411046  RH  027%=      5-min Rain = 0
KBY1 152057Z 35002KT 14/M05 A3014 RMK A01 T01421050  RH  026%=      5-min Rain = 0
KBY1 152058Z 01003KT 14/M05 A3014 RMK A01 T01411052  RH  026%=      5-min Rain = 0
KBY1 152059Z 02003KT 14/M05 A3014 RMK A01 T01411049  RH  026%=      5-min Rain = 0
KBY1 152100Z 34001KT 14/M05 A3014 RMK A01 T01411054  RH  025%=      5-min Rain = 0
KBY1 152101Z 21003KT 14/M05 A3014 RMK A01 T01411049  RH  026%=      5-min Rain = 0
KBY1 152102Z 27001KT 14/M05 A3014 RMK A01 T01431051  RH  026%=      5-min Rain = 0
KBY1 152103Z 29005KT 14/M05 A3014 RMK A01 T01441050  RH  026%=      5-min Rain = 0
KBY1 152104Z 29004KT 14/M05 A3014 RMK A01 T01441052  RH  025%=      5-min Rain = 0
KBY1 152105Z 31002KT 14/M06 A3014 RMK A01 T01421055  RH  025%=      5-min Rain = 0
KBY1 152106Z 25002KT 14/M05 A3014 RMK A01 T01411054  RH  025%=      5-min Rain = 0
KBY1 152107Z 24003KT 14/M05 A3014 RMK A01 T01421051  RH  026%=      5-min Rain = 0
KBY1 152108Z 27003KT 14/M05 A3014 RMK A01 T01431049  RH  026%=      5-min Rain = 0
KBY1 152109Z 23008KT 15/M05 A3014 RMK A01 T01451046  RH  026%=      5-min Rain = 0
KBY1 152110Z 25008KT 15/M04 A3014 RMK A01 T01471044  RH  026%=      5-min Rain = 0
KBY1 152111Z 23006KT 15/M05 A3014 RMK A01 T01471047  RH  026%=      5-min Rain = 0
KBY1 152112Z 23005KT 15/M05 A3013 RMK A01 T01471046  RH  026%=      5-min Rain = 0
KBY1 152113Z 21009KT 15/M05 A3013 RMK A01 T01471049  RH  025%=      5-min Rain = 0
KBY1 152114Z 27006G12KT 15/M05 A3013 RMK A01 T01471047  RH  026%=      5-min Rain = 0
KBY1 152115Z 29005KT 15/M04 A3013 RMK A01 T01481043  RH  026%=      5-min Rain = 0
KBY1 152116Z 31004KT 15/M05 A3013 RMK A01 T01481049  RH  025%=      5-min Rain = 0
KBY1 152117Z 30004KT 15/M05 A3013 RMK A01 T01471048  RH  026%=      5-min Rain = 0
KBY1 152118Z 23006KT 15/M05 A3013 RMK A01 T01461049  RH  026%=      5-min Rain = 0
KBY1 152119Z 27006KT 15/M04 A3013 RMK A01 T01471043  RH  027%=      5-min Rain = 0
KBY1 152120Z 27009KT 15/M05 A3013 RMK A01 T01491046  RH  026%=      5-min Rain = 0
KBY1 152121Z 28006KT 15/M05 A3013 RMK A01 T01491046  RH  026%=      5-min Rain = 0
KBY1 152122Z 29005KT 15/M05 A3013 RMK A01 T01481046  RH  026%=      5-min Rain = 0
KBY1 152123Z 26005KT 15/M05 A3013 RMK A01 T01491045  RH  026%=      5-min Rain = 0
KBY1 152124Z 26005KT 15/M04 A3013 RMK A01 T01511043  RH  026%=      5-min Rain = 0
KBY1 152125Z 22002KT 15/M05 A3013 RMK A01 T01501049  RH  025%=      5-min Rain = 0
KBY1 152126Z 23004KT 15/M05 A3013 RMK A01 T01481052  RH  025%=      5-min Rain = 0
KBY1 152127Z 23007KT 15/M05 A3013 RMK A01 T01471050  RH  025%=      5-min Rain = 0
KBY1 152128Z 22007KT 15/M05 A3013 RMK A01 T01471049  RH  025%=      5-min Rain = 0
KBY1 152129Z 26007KT 15/M05 A3013 RMK A01 T01491046  RH  026%=      5-min Rain = 0
KBY1 152130Z 24003KT 15/M05 A3013 RMK A01 T01501050  RH  025%=      5-min Rain = 0
KBY1 152131Z 22004G9KT 15/M05 A3013 RMK A01 T01481054  RH  024%=      5-min Rain = 0
KBY1 152132Z 25010KT 15/M05 A3013 RMK A01 T01491048  RH  025%=      5-min Rain = 0
KBY1 152133Z 27009KT 15/M05 A3013 RMK A01 T01521045  RH  025%=      5-min Rain = 0
KBY1 152134Z 27008KT 15/M05 A3013 RMK A01 T01521045  RH  025%=      5-min Rain = 0
KBY1 152135Z 27007KT 15/M05 A3013 RMK A01 T01521049  RH  024%=      5-min Rain = 0
KBY1 152136Z 28003KT 15/M05 A3013 RMK A01 T01491051  RH  025%=      5-min Rain = 0
KBY1 152137Z 25003KT 15/M05 A3013 RMK A01 T01491047  RH  026%=      5-min Rain = 0
KBY1 152138Z 27004KT 15/M05 A3012 RMK A01 T01501052  RH  024%=      5-min Rain = 0
KBY1 152139Z 26005KT 15/M05 A3012 RMK A01 T01501048  RH  025%=      5-min Rain = 0
KBY1 152140Z 26004KT 15/M05 A3012 RMK A01 T01521048  RH  025%=      5-min Rain = 0
KBY1 152141Z 26003KT 15/M05 A3012 RMK A01 T01521050  RH  024%=      5-min Rain = 0
KBY1 152142Z 26002KT 15/M05 A3012 RMK A01 T01521053  RH  024%=      5-min Rain = 0
KBY1 152143Z 31002KT 15/M05 A3012 RMK A01 T01521051  RH  024%=      5-min Rain = 0
KBY1 152144Z 33003KT 15/M05 A3012 RMK A01 T01531051  RH  024%=      5-min Rain = 0
KBY1 152145Z 30002KT 15/M05 A3012 RMK A01 T01541046  RH  025%=      5-min Rain = 0
KBY1 152146Z 25008KT 15/M05 A3012 RMK A01 T01541051  RH  024%=      5-min Rain = 0
KBY1 152147Z 23007KT 16/M05 A3012 RMK A01 T01551052  RH  024%=      5-min Rain = 0
KBY1 152148Z 22007KT 16/M05 A3012 RMK A01 T01551050  RH  024%=      5-min Rain = 0
KBY1 152149Z 23005KT 15/M05 A3012 RMK A01 T01541054  RH  023%=      5-min Rain = 0
KBY1 152150Z 23006KT 15/M05 A3012 RMK A01 T01521052  RH  024%=      5-min Rain = 0
KBY1 152151Z 24004KT 15/M05 A3012 RMK A01 T01521052  RH  024%=      5-min Rain = 0
KBY1 152152Z 25006KT 15/M05 A3012 RMK A01 T01521051  RH  024%=      5-min Rain = 0
KBY1 152153Z 23006KT 15/M05 A3012 RMK A01 T01531052  RH  024%=      5-min Rain = 0
KBY1 152154Z 21006KT 15/M06 A3012 RMK A01 T01521055  RH  024%=      5-min Rain = 0
KBY1 152155Z 21005KT 15/M06 A3012 RMK A01 T01511055  RH  024%=      5-min Rain = 0
KBY1 152156Z 20007KT 15/M05 A3012 RMK A01 T01521052  RH  024%=      5-min Rain = 0
KBY1 152157Z 21006KT 15/M05 A3012 RMK A01 T01531053  RH  024%=      5-min Rain = 0
KBY1 152158Z 23005KT 15/M06 A3012 RMK A01 T01531055  RH  023%=      5-min Rain = 0
KBY1 152159Z 21003KT 15/M06 A3011 RMK A01 T01511056  RH  024%=      5-min Rain = 0
KBY1 152200Z 19003KT 15/M06 A3011 RMK A01 T01501057  RH  023%=      5-min Rain = 0
KBY1 152201Z 20002KT 15/M06 A3011 RMK A01 T01501057  RH  023%=      5-min Rain = 0
KBY1 152202Z 22000KT 15/M06 A3011 RMK A01 T01501055  RH  024%=      5-min Rain = 0
KBY1 152203Z 17002KT 15/M06 A3011 RMK A01 T01501058  RH  023%=      5-min Rain = 0
KBY1 152204Z 19003KT 15/M05 A3011 RMK A01 T01501053  RH  024%=      5-min Rain = 0
KBY1 152205Z 19002KT 15/M06 A3011 RMK A01 T01511055  RH  024%=      5-min Rain = 0
KBY1 152206Z 18000KT 15/M06 A3011 RMK A01 T01521058  RH  023%=      5-min Rain = 0
KBY1 152207Z 20000KT 15/M06 A3011 RMK A01 T01521058  RH  023%=      5-min Rain = 0
KBY1 152208Z 22003KT 15/M05 A3011 RMK A01 T01521053  RH  024%=      5-min Rain = 0
KBY1 152209Z 22003KT 16/M05 A3011 RMK A01 T01551051  RH  024%=      5-min Rain = 0
KBY1 152210Z 22006KT 16/M05 A301 RMK A01 T01561051  RH  024%=      5-min Rain = 0
KBY1 152211Z 23006KT 16/M05 A301 RMK A01 T01571049  RH  024%=      5-min Rain = 0
KBY1 152212Z 23006KT 16/M05 A301 RMK A01 T01571049  RH  024%=      5-min Rain = 0
KBY1 152213Z 23005KT 16/M05 A301 RMK A01 T01571052  RH  023%=      5-min Rain = 0
KBY1 152214Z 25005KT 16/M05 A301 RMK A01 T01571049  RH  024%=      5-min Rain = 0
KBY1 152215Z 26005KT 16/M05 A301 RMK A01 T01571049  RH  024%=      5-min Rain = 0
KBY1 152216Z 24007KT 16/M05 A301 RMK A01 T01571050  RH  024%=      5-min Rain = 0
KBY1 152217Z 24007KT 16/M05 A301 RMK A01 T01571049  RH  024%=      5-min Rain = 0
KBY1 152218Z 22006KT 16/M05 A301 RMK A01 T01561050  RH  024%=      5-min Rain = 0
KBY1 152219Z 21004KT 16/M05 A301 RMK A01 T01551054  RH  023%=      5-min Rain = 0
KBY1 152220Z 21004KT 15/M06 A301 RMK A01 T01531055  RH  023%=      5-min Rain = 0
KBY1 152221Z 25007KT 15/M05 A301 RMK A01 T01531050  RH  024%=      5-min Rain = 0
KBY1 152222Z 24006KT 16/M05 A301 RMK A01 T01551049  RH  024%=      5-min Rain = 0
KBY1 152223Z 23005KT 16/M05 A301 RMK A01 T01551054  RH  023%=      5-min Rain = 0
KBY1 152224Z 25004KT 16/M05 A301 RMK A01 T01551051  RH  024%=      5-min Rain = 0
KBY1 152225Z 25005KT 16/M05 A301 RMK A01 T01551052  RH  024%=      5-min Rain = 0
KBY1 152226Z 25004KT 16/M05 A301 RMK A01 T01551053  RH  023%=      5-min Rain = 0
KBY1 152227Z 26002KT 16/M06 A301 RMK A01 T01551056  RH  023%=      5-min Rain = 0
KBY1 152228Z 30003KT 16/M06 A301 RMK A01 T01551055  RH  023%=      5-min Rain = 0
KBY1 152229Z 27004KT 16/M05 A301 RMK A01 T01551054  RH  023%=      5-min Rain = 0
KBY1 152230Z 28005KT 16/M06 A301 RMK A01 T01561055  RH  023%=      5-min Rain = 0
KBY1 152231Z 29003KT 16/M06 A301 RMK A01 T01551055  RH  023%=      5-min Rain = 0
KBY1 152232Z 27003KT 15/M05 A3009 RMK A01 T01541053  RH  024%=      5-min Rain = 0
KBY1 152233Z 28004KT 15/M05 A3009 RMK A01 T01541051  RH  024%=      5-min Rain = 0
KBY1 152234Z 28002KT 16/M05 A3009 RMK A01 T01551054  RH  023%=      5-min Rain = 0
KBY1 152235Z 27002KT 16/M05 A3009 RMK A01 T01551054  RH  023%=      5-min Rain = 0
KBY1 152236Z 29001KT 16/M05 A3009 RMK A01 T01551054  RH  023%=      5-min Rain = 0
KBY1 152237Z 30000KT 16/M05 A3009 RMK A01 T01561053  RH  023%=      5-min Rain = 0
KBY1 152238Z 30000KT 16/M06 A3009 RMK A01 T01581056  RH  023%=      5-min Rain = 0
KBY1 152239Z 33001KT 16/M05 A3009 RMK A01 T01591054  RH  023%=      5-min Rain = 0
KBY1 152240Z 29002KT 16/M06 A3009 RMK A01 T01591055  RH  023%=      5-min Rain = 0
KBY1 152241Z 27003KT 16/M05 A3009 RMK A01 T01591053  RH  023%=      5-min Rain = 0
KBY1 152242Z 25002KT 16/M06 A3009 RMK A01 T01591056  RH  022%=      5-min Rain = 0
KBY1 152243Z 22004KT 16/M05 A3009 RMK A01 T01581050  RH  023%=      5-min Rain = 0
KBY1 152244Z 24007KT 16/M05 A3009 RMK A01 T01601052  RH  023%=      5-min Rain = 0
KBY1 152245Z 24008KT 16/M05 A3009 RMK A01 T01591054  RH  023%=      5-min Rain = 0
KBY1 152246Z 24005KT 16/M05 A3009 RMK A01 T01561054  RH  023%=      5-min Rain = 0
KBY1 152247Z 25006KT 16/M05 A3009 RMK A01 T01561051  RH  024%=      5-min Rain = 0
KBY1 152248Z 24006KT 16/M06 A3009 RMK A01 T01561055  RH  023%=      5-min Rain = 0
KBY1 152249Z 24008KT 16/M05 A3009 RMK A01 T01561050  RH  024%=      5-min Rain = 0
KBY1 152250Z 23006KT 16/M05 A3009 RMK A01 T01571050  RH  024%=      5-min Rain = 0
KBY1 152251Z 22005KT 16/M05 A3009 RMK A01 T01571054  RH  023%=      5-min Rain = 0
KBY1 152252Z 23005KT 16/M05 A3009 RMK A01 T01571049  RH  024%=      5-min Rain = 0
KBY1 152253Z 25006KT 16/M05 A3009 RMK A01 T01591048  RH  024%=      5-min Rain = 0
KBY1 152254Z 27005KT 16/M05 A3009 RMK A01 T01601053  RH  023%=      5-min Rain = 0
KBY1 152255Z 25004KT 16/M06 A3009 RMK A01 T01581056  RH  022%=      5-min Rain = 0
KBY1 152256Z 23006KT 16/M06 A3009 RMK A01 T01561058  RH  022%=      5-min Rain = 0
KBY1 152257Z 22005KT 16/M06 A3009 RMK A01 T01551058  RH  022%=      5-min Rain = 0
KBY1 152258Z 22006KT 16/M06 A3009 RMK A01 T01551059  RH  022%=      5-min Rain = 0
KBY1 152259Z 22005KT 16/M06 A3009 RMK A01 T01551057  RH  023%=      5-min Rain = 0
KBY1 152300Z 24006KT 16/M06 A3009 RMK A01 T01561055  RH  023%=      5-min Rain = 0
KBY1 152301Z 24006KT 16/M06 A3009 RMK A01 T01561057  RH  023%=      5-min Rain = 0
KBY1 152302Z 25003KT 16/M06 A3009 RMK A01 T01551056  RH  023%=      5-min Rain = 0
KBY1 152303Z 25003KT 16/M06 A3009 RMK A01 T01561056  RH  023%=      5-min Rain = 0
KBY1 152304Z 24004KT 16/M05 A3009 RMK A01 T01571053  RH  023%=      5-min Rain = 0
KBY1 152305Z 23003KT 16/M06 A3009 RMK A01 T01571057  RH  022%=      5-min Rain = 0
KBY1 152306Z 21005KT 16/M06 A3009 RMK A01 T01571055  RH  023%=      5-min Rain = 0
KBY1 152307Z 21006KT 16/M05 A3009 RMK A01 T01581052  RH  023%=      5-min Rain = 0
KBY1 152308Z 21005KT 16/M05 A3009 RMK A01 T01581053  RH  023%=      5-min Rain = 0
KBY1 152309Z 24004KT 16/M05 A3009 RMK A01 T01581052  RH  023%=      5-min Rain = 0
KBY1 152310Z 25004KT 16/M06 A3009 RMK A01 T01581058  RH  022%=      5-min Rain = 0
KBY1 152311Z 23004KT 16/M06 A3009 RMK A01 T01571057  RH  022%=      5-min Rain = 0
KBY1 152312Z 24005KT 16/M05 A3009 RMK A01 T01561054  RH  023%=      5-min Rain = 0
KBY1 152313Z 23004KT 16/M06 A3009 RMK A01 T01561058  RH  023%=      5-min Rain = 0
KBY1 152314Z 25003KT 16/M06 A3009 RMK A01 T01551057  RH  023%=      5-min Rain = 0
KBY1 152315Z 26003KT 16/M05 A3009 RMK A01 T01551054  RH  023%=      5-min Rain = 0
KBY1 152316Z 27003KT 16/M06 A3009 RMK A01 T01551057  RH  023%=      5-min Rain = 0
KBY1 152317Z 24002KT 16/M06 A3009 RMK A01 T01551058  RH  023%=      5-min Rain = 0
KBY1 152318Z 20003KT 16/M06 A3008 RMK A01 T01561055  RH  023%=      5-min Rain = 0
KBY1 152319Z 22005KT 16/M05 A3008 RMK A01 T01571052  RH  023%=      5-min Rain = 0
KBY1 152320Z 23005KT 16/M05 A3008 RMK A01 T01581051  RH  023%=      5-min Rain = 0
KBY1 152321Z 24007KT 16/M05 A3008 RMK A01 T01581051  RH  023%=      5-min Rain = 0
KBY1 152322Z 25006KT 16/M05 A3008 RMK A01 T01561054  RH  023%=      5-min Rain = 0
KBY1 152323Z 26004KT 16/M06 A3008 RMK A01 T01551056  RH  023%=      5-min Rain = 0
KBY1 152324Z 22004KT 16/M05 A3008 RMK A01 T01551052  RH  024%=      5-min Rain = 0
KBY1 152325Z 21005KT 16/M06 A3008 RMK A01 T01551055  RH  023%=      5-min Rain = 0
KBY1 152326Z 23005KT 16/M06 A3008 RMK A01 T01551055  RH  023%=      5-min Rain = 0
KBY1 152327Z 22005KT 16/M05 A3008 RMK A01 T01551054  RH  023%=      5-min Rain = 0
KBY1 152328Z 21004KT 16/M06 A3008 RMK A01 T01551057  RH  023%=      5-min Rain = 0
KBY1 152329Z 21004KT 15/M06 A3008 RMK A01 T01541059  RH  023%=      5-min Rain = 0
KBY1 152330Z 21005KT 15/M06 A3008 RMK A01 T01541057  RH  023%=      5-min Rain = 0
KBY1 152331Z 22004KT 15/M06 A3008 RMK A01 T01541057  RH  023%=      5-min Rain = 0
KBY1 152332Z 22006KT 15/M06 A3008 RMK A01 T01541055  RH  023%=      5-min Rain = 0
KBY1 152333Z 26006KT 15/M05 A3008 RMK A01 T01541052  RH  024%=      5-min Rain = 0
KBY1 152334Z 26005KT 15/M05 A3008 RMK A01 T01531050  RH  024%=      5-min Rain = 0
KBY1 152335Z 22006KT 15/M05 A3008 RMK A01 T01531048  RH  025%=      5-min Rain = 0
KBY1 152336Z 22007KT 15/M05 A3008 RMK A01 T01531050  RH  024%=      5-min Rain = 0
KBY1 152337Z 22007KT 15/M05 A3008 RMK A01 T01521054  RH  024%=      5-min Rain = 0
KBY1 152338Z 22006KT 15/M05 A3008 RMK A01 T01521053  RH  024%=      5-min Rain = 0
KBY1 152339Z 22004KT 15/M06 A3008 RMK A01 T01511056  RH  024%=      5-min Rain = 0
KBY1 152340Z 23007KT 15/M05 A3008 RMK A01 T01511053  RH  024%=      5-min Rain = 0
KBY1 152341Z 24007KT 15/M05 A3008 RMK A01 T01511053  RH  024%=      5-min Rain = 0
KBY1 152342Z 24006KT 15/M06 A3008 RMK A01 T01501055  RH  024%=      5-min Rain = 0
KBY1 152343Z 25005KT 15/M06 A3008 RMK A01 T01501055  RH  024%=      5-min Rain = 0
KBY1 152344Z 25004KT 15/M05 A3008 RMK A01 T01501052  RH  024%=      5-min Rain = 0
KBY1 152345Z 23003KT 15/M05 A3008 RMK A01 T01501049  RH  025%=      5-min Rain = 0
KBY1 152346Z 23005KT 15/M05 A3008 RMK A01 T01501050  RH  025%=      5-min Rain = 0
KBY1 152347Z 23004KT 15/M05 A3008 RMK A01 T01501051  RH  025%=      5-min Rain = 0
KBY1 152348Z 21004KT 15/M05 A3008 RMK A01 T01501050  RH  025%=      5-min Rain = 0
KBY1 152349Z 21005KT 15/M05 A3008 RMK A01 T01501051  RH  025%=      5-min Rain = 0
KBY1 152350Z 22006KT 15/M05 A3008 RMK A01 T01491051  RH  025%=      5-min Rain = 0
KBY1 152351Z 22005KT 15/M05 A3008 RMK A01 T01481052  RH  025%=      5-min Rain = 0
KBY1 152352Z 21004KT 15/M05 A3008 RMK A01 T01481052  RH  025%=      5-min Rain = 0
KBY1 152353Z 22005KT 15/M05 A3008 RMK A01 T01471050  RH  025%=      5-min Rain = 0
KBY1 152354Z 21004KT 15/M05 A3008 RMK A01 T01471052  RH  025%=      5-min Rain = 0
KBY1 152355Z 20004KT 15/M05 A3008 RMK A01 T01461051  RH  025%=      5-min Rain = 0
KBY1 152356Z 20004KT 15/M05 A3008 RMK A01 T01451051  RH  025%=      5-min Rain = 0
KBY1 152357Z 20004KT 14/M05 A3008 RMK A01 T01441052  RH  025%=      5-min Rain = 0
KBY1 152358Z 20004KT 14/M05 A3008 RMK A01 T01441051  RH  025%=      5-min Rain = 0
KBY1 152359Z 20004KT 14/M05 A3008 RMK A01 T01431052  RH  025%=      5-min Rain = 0
KBY1 160000Z 20004KT 14/M05 A3008 RMK A01 T01421052  RH  026%=      5-min Rain = 0
KBY1 160001Z 21003KT 14/M05 A3008 RMK A01 T01411052  RH  026%=      5-min Rain = 0
KBY1 160002Z 21004KT 14/M05 A3008 RMK A01 T01401052  RH  026%=      5-min Rain = 0
KBY1 160003Z 22003KT 14/M05 A3008 RMK A01 T01401053  RH  026%=      5-min Rain = 0
KBY1 160004Z 23004KT 14/M05 A3008 RMK A01 T01391052  RH  026%=      5-min Rain = 0
KBY1 160005Z 23003KT 14/M05 A3008 RMK A01 T01391051  RH  026%=      5-min Rain = 0
KBY1 160006Z 22002KT 14/M05 A3008 RMK A01 T01391047  RH  027%=      5-min Rain = 0
KBY1 160007Z 22003KT 14/M05 A3008 RMK A01 T01391048  RH  027%=      5-min Rain = 0
KBY1 160008Z 21003KT 14/M05 A3008 RMK A01 T01391048  RH  027%=      5-min Rain = 0
KBY1 160009Z 22005KT 14/M05 A3008 RMK A01 T01391048  RH  027%=      5-min Rain = 0
KBY1 160010Z 22004KT 14/M05 A3008 RMK A01 T01381049  RH  027%=      5-min Rain = 0
KBY1 160011Z 22004KT 13/M05 A3008 RMK A01 T01341050  RH  027%=      5-min Rain = 0
KBY1 160012Z 22005KT 13/M05 A3008 RMK A01 T01321051  RH  028%=      5-min Rain = 0
KBY1 160013Z 22004KT 13/M05 A3008 RMK A01 T01311051  RH  028%=      5-min Rain = 0
KBY1 160014Z 22004KT 13/M05 A3008 RMK A01 T01291051  RH  028%=      5-min Rain = 0
KBY1 160015Z 22004KT 13/M05 A3008 RMK A01 T01281048  RH  029%=      5-min Rain = 0
KBY1 160016Z 21004KT 13/M05 A3008 RMK A01 T01271045  RH  030%=      5-min Rain = 0
KBY1 160017Z 21004KT 13/M05 A3008 RMK A01 T01251045  RH  030%=      5-min Rain = 0
KBY1 160018Z 21004KT 12/M05 A3008 RMK A01 T01241045  RH  030%=      5-min Rain = 0
KBY1 160019Z 21004KT 12/M05 A3008 RMK A01 T01231046  RH  030%=      5-min Rain = 0
KBY1 160020Z 21004KT 12/M05 A3008 RMK A01 T01221045  RH  031%=      5-min Rain = 0
KBY1 160021Z 21004KT 12/M04 A3008 RMK A01 T01211044  RH  031%=      5-min Rain = 0
KBY1 160022Z 22004KT 12/M04 A3008 RMK A01 T01201044  RH  031%=      5-min Rain = 0
KBY1 160023Z 22004KT 12/M05 A3008 RMK A01 T01201045  RH  031%=      5-min Rain = 0
KBY1 160024Z 22003KT 12/M05 A3008 RMK A01 T01201046  RH  031%=      5-min Rain = 0
KBY1 160025Z 22003KT 12/M05 A3008 RMK A01 T01201045  RH  031%=      5-min Rain = 0
KBY1 160026Z 22003KT 12/M05 A3008 RMK A01 T01191045  RH  031%=      5-min Rain = 0
KBY1 160027Z 22003KT 12/M05 A3008 RMK A01 T01181046  RH  032%=      5-min Rain = 0
KBY1 160028Z 22003KT 12/M05 A3008 RMK A01 T01171045  RH  032%=      5-min Rain = 0
KBY1 160029Z 22003KT 12/M04 A3008 RMK A01 T01171044  RH  032%=      5-min Rain = 0
KBY1 160030Z 22003KT 12/M05 A3008 RMK A01 T01161046  RH  032%=      5-min Rain = 0
KBY1 160031Z 22003KT 12/M05 A3008 RMK A01 T01151046  RH  032%=      5-min Rain = 0
KBY1 160032Z 22003KT 11/M04 A3008 RMK A01 T01141044  RH  033%=      5-min Rain = 0
KBY1 160033Z 23002KT 11/M04 A3008 RMK A01 T01131043  RH  033%=      5-min Rain = 0
KBY1 160034Z 22002KT 11/M04 A3008 RMK A01 T01121044  RH  033%=      5-min Rain = 0
KBY1 160035Z 23003KT 11/M04 A3008 RMK A01 T01121044  RH  033%=      5-min Rain = 0
KBY1 160036Z 22003KT 11/M04 A3008 RMK A01 T01111044  RH  033%=      5-min Rain = 0
KBY1 160037Z 22003KT 11/M04 A3008 RMK A01 T01111043  RH  034%=      5-min Rain = 0
KBY1 160038Z 22003KT 11/M04 A3008 RMK A01 T01101043  RH  034%=      5-min Rain = 0
KBY1 160039Z 22002KT 11/M04 A3008 RMK A01 T01091043  RH  034%=      5-min Rain = 0
KBY1 160040Z 22003KT 11/M04 A3008 RMK A01 T01091044  RH  034%=      5-min Rain = 0
KBY1 160041Z 22002KT 11/M04 A3008 RMK A01 T01091044  RH  034%=      5-min Rain = 0
KBY1 160042Z 23002KT 11/M04 A3008 RMK A01 T01091043  RH  034%=      5-min Rain = 0
KBY1 160043Z 22002KT 11/M04 A3008 RMK A01 T01081043  RH  034%=      5-min Rain = 0
KBY1 160044Z 22002KT 11/M04 A3008 RMK A01 T01071042  RH  035%=      5-min Rain = 0
KBY1 160045Z 22002KT 11/M04 A3008 RMK A01 T01061043  RH  035%=      5-min Rain = 0
KBY1 160046Z 22002KT 11/M05 A3008 RMK A01 T01061045  RH  034%=      5-min Rain = 0
KBY1 160047Z 21002KT 11/M04 A3008 RMK A01 T01061043  RH  035%=      5-min Rain = 0
KBY1 160048Z 22002KT 11/M04 A3008 RMK A01 T01051044  RH  035%=      5-min Rain = 0
KBY1 160049Z 22002KT 10/M04 A3008 RMK A01 T01041044  RH  035%=      5-min Rain = 0
KBY1 160050Z 21003KT 10/M04 A3008 RMK A01 T01041043  RH  035%=      5-min Rain = 0
KBY1 160051Z 22003KT 10/M04 A3008 RMK A01 T01031043  RH  035%=      5-min Rain = 0
KBY1 160052Z 21003KT 10/M04 A3008 RMK A01 T01031044  RH  035%=      5-min Rain = 0
KBY1 160053Z 22002KT 10/M04 A3008 RMK A01 T01021044  RH  035%=      5-min Rain = 0
KBY1 160054Z 22003KT 10/M04 A3008 RMK A01 T01021044  RH  036%=      5-min Rain = 0
KBY1 160055Z 22003KT 10/M04 A3008 RMK A01 T01021044  RH  036%=      5-min Rain = 0
KBY1 160056Z 22003KT 10/M04 A3008 RMK A01 T01011044  RH  036%=      5-min Rain = 0
KBY1 160057Z 22002KT 10/M04 A3008 RMK A01 T01011044  RH  036%=      5-min Rain = 0
KBY1 160058Z 22002KT 10/M04 A3008 RMK A01 T01011044  RH  036%=      5-min Rain = 0
KBY1 160059Z 21002KT 10/M04 A3008 RMK A01 T00991044  RH  036%=      5-min Rain = 0
KBY1 160100Z 23001KT 10/M05 A3008 RMK A01 T00981045  RH  036%=      5-min Rain = 0
KBY1 160101Z 22001KT 10/M05 A3008 RMK A01 T00971045  RH  036%=      5-min Rain = 0
KBY1 160102Z 24000KT 10/M05 A3008 RMK A01 T00961046  RH  036%=      5-min Rain = 0
KBY1 160103Z 23001KT 10/M05 A3008 RMK A01 T00961046  RH  037%=      5-min Rain = 0
KBY1 160104Z 23000KT 10/M05 A3008 RMK A01 T00951046  RH  037%=      5-min Rain = 0
KBY1 160105Z 00000KT 10/M05 A3008 RMK A01 T00951046  RH  037%=      5-min Rain = 0
KBY1 160106Z 00000KT 10/M05 A3008 RMK A01 T00951045  RH  037%=      5-min Rain = 0
KBY1 160107Z 00000KT 10/M05 A3008 RMK A01 T00951046  RH  037%=      5-min Rain = 0
KBY1 160108Z 00000KT 10/M05 A3008 RMK A01 T00951047  RH  037%=      5-min Rain = 0
KBY1 160109Z 00000KT 10/M05 A3008 RMK A01 T00951046  RH  037%=      5-min Rain = 0
KBY1 160110Z 00000KT 10/M05 A3008 RMK A01 T00961046  RH  036%=      5-min Rain = 0
KBY1 160111Z 00000KT 10/M05 A3008 RMK A01 T00961047  RH  036%=      5-min Rain = 0
KBY1 160112Z 00000KT 10/M05 A3008 RMK A01 T00971047  RH  036%=      5-min Rain = 0
KBY1 160113Z 30000KT 10/M05 A3008 RMK A01 T00981047  RH  036%=      5-min Rain = 0
KBY1 160114Z 00000KT 10/M05 A3008 RMK A01 T00981048  RH  036%=      5-min Rain = 0
KBY1 160115Z 00000KT 10/M05 A3008 RMK A01 T00991047  RH  035%=      5-min Rain = 0
KBY1 160116Z 06000KT 10/M05 A3008 RMK A01 T00991046  RH  035%=      5-min Rain = 0
KBY1 160117Z 04000KT 10/M05 A3008 RMK A01 T00991045  RH  036%=      5-min Rain = 0
KBY1 160118Z 00000KT 10/M05 A3008 RMK A01 T00981047  RH  036%=      5-min Rain = 0
KBY1 160119Z 00000KT 10/M04 A3008 RMK A01 T00981043  RH  037%=      5-min Rain = 0
KBY1 160120Z 00000KT 10/M04 A3008 RMK A01 T00961043  RH  037%=      5-min Rain = 0
KBY1 160121Z 00000KT 09/M04 A3008 RMK A01 T00931042  RH  038%=      5-min Rain = 0
KBY1 160122Z 11000KT 09/M04 A3009 RMK A01 T00891040  RH  040%=      5-min Rain = 0
KBY1 160123Z 16001KT 09/M04 A3009 RMK A01 T00861042  RH  040%=      5-min Rain = 0
KBY1 160124Z 14000KT 09/M04 A3009 RMK A01 T00851044  RH  040%=      5-min Rain = 0
KBY1 160125Z 14000KT 09/M04 A3009 RMK A01 T00851044  RH  040%=      5-min Rain = 0
KBY1 160126Z 21000KT 09/M04 A3009 RMK A01 T00851044  RH  040%=      5-min Rain = 0
KBY1 160127Z 19000KT 09/M04 A3009 RMK A01 T00861044  RH  040%=      5-min Rain = 0
KBY1 160128Z 00000KT 08/M04 A3009 RMK A01 T00831036  RH  043%=      5-min Rain = 0
KBY1 160129Z 00000KT 08/M04 A3009 RMK A01 T00781040  RH  043%=      5-min Rain = 0
KBY1 160130Z 34000KT 08/M04 A3009 RMK A01 T00781043  RH  042%=      5-min Rain = 0
KBY1 160131Z 34001KT 08/M04 A3009 RMK A01 T00801043  RH  041%=      5-min Rain = 0
KBY1 160132Z 24001KT 08/M04 A3009 RMK A01 T00811041  RH  042%=      5-min Rain = 0
KBY1 160133Z 23001KT 08/M04 A3009 RMK A01 T00801042  RH  042%=      5-min Rain = 0
KBY1 160134Z 22002KT 08/M04 A3009 RMK A01 T00801043  RH  041%=      5-min Rain = 0
KBY1 160135Z 23002KT 08/M04 A3009 RMK A01 T00801040  RH  043%=      5-min Rain = 0
KBY1 160136Z 25002KT 08/M04 A3009 RMK A01 T00771040  RH  043%=      5-min Rain = 0
KBY1 160137Z 29001KT 08/M04 A3009 RMK A01 T00751040  RH  044%=      5-min Rain = 0
KBY1 160138Z 22001KT 08/M04 A3009 RMK A01 T00751041  RH  044%=      5-min Rain = 0
KBY1 160139Z 22001KT 08/M04 A3009 RMK A01 T00751041  RH  043%=      5-min Rain = 0
KBY1 160140Z 22001KT 08/M04 A3009 RMK A01 T00751042  RH  043%=      5-min Rain = 0
KBY1 160141Z 20000KT 07/M04 A3009 RMK A01 T00731038  RH  045%=      5-min Rain = 0
KBY1 160142Z 00000KT 07/M04 A3009 RMK A01 T00731041  RH  044%=      5-min Rain = 0
KBY1 160143Z 01000KT 07/M04 A3009 RMK A01 T00731037  RH  046%=      5-min Rain = 0
KBY1 160144Z 00000KT 07/M04 A3009 RMK A01 T00661036  RH  048%=      5-min Rain = 0
KBY1 160145Z 02001KT 06/M04 A3009 RMK A01 T00631039  RH  048%=      5-min Rain = 0
KBY1 160146Z 06001KT 06/M04 A3009 RMK A01 T00631038  RH  048%=      5-min Rain = 0
KBY1 160147Z 04001KT 06/M04 A3009 RMK A01 T00641038  RH  048%=      5-min Rain = 0
KBY1 160148Z 05001KT 07/M04 A3009 RMK A01 T00661040  RH  047%=      5-min Rain = 0
KBY1 160149Z 07001KT 07/M04 A3009 RMK A01 T00671038  RH  047%=      5-min Rain = 0
KBY1 160150Z 12000KT 07/M04 A3009 RMK A01 T00661036  RH  048%=      5-min Rain = 0
KBY1 160151Z 01001KT 06/M03 A3009 RMK A01 T00631033  RH  050%=      5-min Rain = 0
KBY1 160152Z 34001KT 06/M03 A3009 RMK A01 T00591032  RH  052%=      5-min Rain = 0
KBY1 160153Z 01001KT 05/M03 A3009 RMK A01 T00541034  RH  053%=      5-min Rain = 0
KBY1 160154Z 36002KT 05/M04 A3009 RMK A01 T00511035  RH  053%=      5-min Rain = 0
KBY1 160155Z 01002KT 05/M03 A3009 RMK A01 T00491032  RH  055%=      5-min Rain = 0
KBY1 160156Z 00002KT 05/M03 A3009 RMK A01 T00461032  RH  057%=      5-min Rain = 0
KBY1 160157Z 01003KT 04/M03 A3009 RMK A01 T00431031  RH  059%=      5-min Rain = 0
KBY1 160158Z 01002KT 04/M04 A3009 RMK A01 T00441035  RH  057%=      5-min Rain = 0
KBY1 160159Z 36003KT 05/M04 A3009 RMK A01 T00481036  RH  055%=      5-min Rain = 0
KBY1 160200Z 36003KT 05/M04 A3009 RMK A01 T00511037  RH  053%=      5-min Rain = 0
KBY1 160201Z 36002KT 05/M03 A3009 RMK A01 T00501033  RH  055%=      5-min Rain = 0
KBY1 160202Z 36002KT 05/M03 A3009 RMK A01 T00471033  RH  056%=      5-min Rain = 0
KBY1 160203Z 36003KT 04/M03 A3009 RMK A01 T00441033  RH  057%=      5-min Rain = 0
KBY1 160204Z 00003KT 04/M03 A3009 RMK A01 T00431034  RH  057%=      5-min Rain = 0
KBY1 160205Z 00002KT 04/M03 A3009 RMK A01 T00431033  RH  058%=      5-min Rain = 0
KBY1 160206Z 36001KT 04/M03 A3009 RMK A01 T00431033  RH  058%=      5-min Rain = 0
KBY1 160207Z 35001KT 04/M04 A3009 RMK A01 T00431035  RH  057%=      5-min Rain = 0
KBY1 160208Z 35001KT 04/M04 A3009 RMK A01 T00441035  RH  056%=      5-min Rain = 0
KBY1 160209Z 01001KT 05/M04 A3009 RMK A01 T00461035  RH  056%=      5-min Rain = 0
KBY1 160210Z 02001KT 05/M03 A3009 RMK A01 T00461033  RH  057%=      5-min Rain = 0
KBY1 160211Z 00001KT 05/M04 A3009 RMK A01 T00451035  RH  056%=      5-min Rain = 0
KBY1 160212Z 35001KT 05/M04 A3009 RMK A01 T00471036  RH  055%=      5-min Rain = 0
KBY1 160213Z 01001KT 05/M04 A3009 RMK A01 T00501035  RH  054%=      5-min Rain = 0
KBY1 160214Z 35001KT 05/M03 A3009 RMK A01 T00501032  RH  056%=      5-min Rain = 0
KBY1 160215Z 34000KT 05/M04 A3009 RMK A01 T00461035  RH  055%=      5-min Rain = 0
KBY1 160216Z 32001KT 05/M04 A3009 RMK A01 T00451037  RH  055%=      5-min Rain = 0
KBY1 160217Z 28002KT 05/M04 A3009 RMK A01 T00481037  RH  054%=      5-min Rain = 0
KBY1 160218Z 27001KT 05/M03 A3009 RMK A01 T00481033  RH  056%=      5-min Rain = 0
KBY1 160219Z 05000KT 05/M03 A3009 RMK A01 T00451033  RH  057%=      5-min Rain = 0
KBY1 160220Z 32000KT 04/M03 A3009 RMK A01 T00431034  RH  057%=      5-min Rain = 0
KBY1 160221Z 36000KT 04/M03 A3009 RMK A01 T00421031  RH  059%=      5-min Rain = 0
KBY1 160222Z 35001KT 04/M03 A3009 RMK A01 T00391033  RH  059%=      5-min Rain = 0
KBY1 160223Z 33001KT 04/M04 A3009 RMK A01 T00391035  RH  059%=      5-min Rain = 0
KBY1 160224Z 34001KT 04/M04 A3009 RMK A01 T00391035  RH  059%=      5-min Rain = 0
KBY1 160225Z 35001KT 04/M04 A3009 RMK A01 T00401035  RH  058%=      5-min Rain = 0
KBY1 160226Z 00000KT 04/M04 A3009 RMK A01 T00421035  RH  057%=      5-min Rain = 0
KBY1 160227Z 34000KT 04/M04 A3009 RMK A01 T00431035  RH  057%=      5-min Rain = 0
KBY1 160228Z 33000KT 05/M04 A3009 RMK A01 T00451035  RH  056%=      5-min Rain = 0
KBY1 160229Z 34000KT 04/M03 A3009 RMK A01 T00441034  RH  057%=      5-min Rain = 0
KBY1 160230Z 30000KT 04/M03 A3009 RMK A01 T00401033  RH  059%=      5-min Rain = 0
KBY1 160231Z 29001KT 04/M03 A3009 RMK A01 T00381033  RH  060%=      5-min Rain = 0
KBY1 160232Z 29000KT 04/M03 A3009 RMK A01 T00371033  RH  060%=      5-min Rain = 0
KBY1 160233Z 31000KT 04/M03 A3009 RMK A01 T00371032  RH  061%=      5-min Rain = 0
KBY1 160234Z 28000KT 04/M03 A3009 RMK A01 T00361030  RH  062%=      5-min Rain = 0
KBY1 160235Z 31001KT 03/M03 A3009 RMK A01 T00331031  RH  063%=      5-min Rain = 0
KBY1 160236Z 29001KT 03/M03 A3009 RMK A01 T00311031  RH  064%=      5-min Rain = 0
KBY1 160237Z 26000KT 03/M03 A3009 RMK A01 T00301031  RH  064%=      5-min Rain = 0
KBY1 160238Z 29001KT 03/M03 A3009 RMK A01 T00281032  RH  065%=      5-min Rain = 0
KBY1 160239Z 22000KT 03/M03 A3009 RMK A01 T00281031  RH  065%=      5-min Rain = 0
KBY1 160240Z 23000KT 03/M03 A3009 RMK A01 T00281031  RH  065%=      5-min Rain = 0
KBY1 160241Z 22000KT 03/M03 A3009 RMK A01 T00271028  RH  067%=      5-min Rain = 0
KBY1 160242Z 21000KT 03/M03 A3009 RMK A01 T00261029  RH  067%=      5-min Rain = 0
KBY1 160243Z 00000KT 03/M03 A3009 RMK A01 T00261031  RH  066%=      5-min Rain = 0
KBY1 160244Z 00000KT 03/M03 A3009 RMK A01 T00271033  RH  065%=      5-min Rain = 0
KBY1 160245Z 00000KT 03/M03 A3009 RMK A01 T00301033  RH  063%=      5-min Rain = 0
KBY1 160246Z 00000KT 03/M03 A3009 RMK A01 T00311033  RH  063%=      5-min Rain = 0
KBY1 160247Z 00000KT 03/M04 A3009 RMK A01 T00331035  RH  061%=      5-min Rain = 0
KBY1 160248Z 00000KT 04/M04 A3009 RMK A01 T00371036  RH  059%=      5-min Rain = 0
KBY1 160249Z 00000KT 04/M03 A3009 RMK A01 T00381034  RH  059%=      5-min Rain = 0
KBY1 160250Z 00000KT 04/M03 A3009 RMK A01 T00381031  RH  061%=      5-min Rain = 0
KBY1 160251Z 00000KT 04/M03 A3009 RMK A01 T00361032  RH  061%=      5-min Rain = 0
KBY1 160252Z 00000KT 03/M03 A3009 RMK A01 T00341032  RH  062%=      5-min Rain = 0
KBY1 160253Z 00000KT 03/M03 A3009 RMK A01 T00331033  RH  062%=      5-min Rain = 0
KBY1 160254Z 00000KT 03/M03 A3009 RMK A01 T00321033  RH  062%=      5-min Rain = 0
KBY1 160255Z 00000KT 03/M04 A3009 RMK A01 T00321035  RH  062%=      5-min Rain = 0
KBY1 160256Z 00000KT 03/M04 A3009 RMK A01 T00331035  RH  061%=      5-min Rain = 0
KBY1 160257Z 29000KT 04/M04 A3009 RMK A01 T00351035  RH  060%=      5-min Rain = 0
KBY1 160258Z 26000KT 04/M03 A3009 RMK A01 T00361034  RH  060%=      5-min Rain = 0
KBY1 160259Z 00000KT 04/M03 A3009 RMK A01 T00371034  RH  060%=      5-min Rain = 0
KBY1 160300Z 00000KT 04/M04 A3009 RMK A01 T00381036  RH  059%=      5-min Rain = 0
KBY1 160301Z 00000KT 04/M04 A3009 RMK A01 T00391037  RH  057%=      5-min Rain = 0
KBY1 160302Z 00000KT 04/M04 A3009 RMK A01 T00411038  RH  057%=      5-min Rain = 0
KBY1 160303Z 00000KT 04/M04 A3009 RMK A01 T00431037  RH  056%=      5-min Rain = 0
KBY1 160304Z 00000KT 04/M03 A3009 RMK A01 T00421032  RH  058%=      5-min Rain = 0
KBY1 160305Z 00000KT 03/M03 A3009 RMK A01 T00341032  RH  062%=      5-min Rain = 0
KBY1 160306Z 00000KT 03/M03 A3009 RMK A01 T00281032  RH  064%=      5-min Rain = 0
KBY1 160307Z 00000KT 03/M03 A3009 RMK A01 T00251032  RH  066%=      5-min Rain = 0
KBY1 160308Z 00000KT 02/M03 A3009 RMK A01 T00221033  RH  067%=      5-min Rain = 0
KBY1 160309Z 00000KT 02/M03 A3009 RMK A01 T00191034  RH  068%=      5-min Rain = 0
KBY1 160310Z 00000KT 02/M03 A3009 RMK A01 T00181034  RH  069%=      5-min Rain = 0
KBY1 160311Z 05000KT 02/M03 A3009 RMK A01 T00171034  RH  069%=      5-min Rain = 0
KBY1 160312Z 05000KT 02/M03 A3009 RMK A01 T00181033  RH  069%=      5-min Rain = 0
KBY1 160313Z 00000KT 02/M03 A3009 RMK A01 T00181030  RH  070%=      5-min Rain = 0
KBY1 160314Z 05000KT 02/M03 A3009 RMK A01 T00181031  RH  070%=      5-min Rain = 0
KBY1 160315Z 05001KT 02/M03 A3009 RMK A01 T00191033  RH  068%=      5-min Rain = 0
KBY1 160316Z 05000KT 02/M03 A3009 RMK A01 T00211033  RH  068%=      5-min Rain = 0
KBY1 160317Z 00000KT 02/M03 A3009 RMK A01 T00181034  RH  068%=      5-min Rain = 0
KBY1 160318Z 00000KT 02/M04 A3009 RMK A01 T00171035  RH  068%=      5-min Rain = 0
KBY1 160319Z 00000KT 02/M03 A3009 RMK A01 T00161033  RH  070%=      5-min Rain = 0
KBY1 160320Z 00000KT 02/M03 A3009 RMK A01 T00151032  RH  071%=      5-min Rain = 0
KBY1 160321Z 00000KT 01/M03 A3009 RMK A01 T00131032  RH  072%=      5-min Rain = 0
KBY1 160322Z 00000KT 01/M03 A3009 RMK A01 T00131032  RH  072%=      5-min Rain = 0
KBY1 160323Z 00000KT 01/M03 A3009 RMK A01 T00131031  RH  073%=      5-min Rain = 0
KBY1 160324Z 00000KT 01/M03 A3009 RMK A01 T00101032  RH  074%=      5-min Rain = 0
KBY1 160325Z 00000KT 01/M03 A3009 RMK A01 T00091030  RH  075%=      5-min Rain = 0
KBY1 160326Z 00000KT 01/M03 A3009 RMK A01 T00081029  RH  076%=      5-min Rain = 0
KBY1 160327Z 00000KT 01/M03 A3009 RMK A01 T00071030  RH  076%=      5-min Rain = 0
KBY1 160328Z 05001KT 01/M03 A3009 RMK A01 T00071031  RH  076%=      5-min Rain = 0
KBY1 160329Z 04000KT 01/M03 A3009 RMK A01 T00071030  RH  076%=      5-min Rain = 0
KBY1 160330Z 07001KT 01/M03 A3009 RMK A01 T00071028  RH  077%=      5-min Rain = 0
KBY1 160331Z 08001KT 01/M03 A3009 RMK A01 T00071029  RH  077%=      5-min Rain = 0
KBY1 160332Z 07002KT 01/M03 A3009 RMK A01 T00091029  RH  076%=      5-min Rain = 0
KBY1 160333Z 06002KT 01/M03 A3009 RMK A01 T00101029  RH  075%=      5-min Rain = 0
KBY1 160334Z 05002KT 01/M03 A3009 RMK A01 T00091029  RH  076%=      5-min Rain = 0
KBY1 160335Z 05002KT 01/M03 A3009 RMK A01 T00081029  RH  077%=      5-min Rain = 0
KBY1 160336Z 06003KT 01/M03 A3009 RMK A01 T00071030  RH  076%=      5-min Rain = 0
KBY1 160337Z 06002KT 01/M03 A3009 RMK A01 T00091030  RH  075%=      5-min Rain = 0
KBY1 160338Z 05002KT 01/M03 A3009 RMK A01 T00111030  RH  074%=      5-min Rain = 0
KBY1 160339Z 04002KT 01/M03 A3009 RMK A01 T00121031  RH  073%=      5-min Rain = 0
KBY1 160340Z 04001KT 01/M03 A3009 RMK A01 T00121030  RH  074%=      5-min Rain = 0
KBY1 160341Z 04002KT 01/M03 A3009 RMK A01 T00111030  RH  074%=      5-min Rain = 0
KBY1 160342Z 05001KT 01/M03 A3009 RMK A01 T00091031  RH  074%=      5-min Rain = 0
KBY1 160343Z 05001KT 01/M03 A3009 RMK A01 T00071032  RH  075%=      5-min Rain = 0
KBY1 160344Z 07000KT 01/M03 A3009 RMK A01 T00051033  RH  075%=      5-min Rain = 0
KBY1 160345Z 06001KT 00/M03 A3009 RMK A01 T00041032  RH  077%=      5-min Rain = 0
KBY1 160346Z 05001KT 00/M03 A3009 RMK A01 T00031030  RH  078%=      5-min Rain = 0
KBY1 160347Z 05001KT 00/M03 A3009 RMK A01 T00021030  RH  079%=      5-min Rain = 0
KBY1 160348Z 34000KT 00/M03 A3009 RMK A01 T00011029  RH  081%=      5-min Rain = 0
KBY1 160349Z 35001KT 00/03 A3009 RMK A01 T00000-28  RH  081%=      5-min Rain = 0
KBY1 160350Z 36001KT 00/M03 A3009 RMK A01 T00011029  RH  080%=      5-min Rain = 0
KBY1 160351Z 02000KT 00/M03 A3009 RMK A01 T00011032  RH  079%=      5-min Rain = 0
KBY1 160352Z 35001KT 00/M03 A3009 RMK A01 T00011034  RH  078%=      5-min Rain = 0
KBY1 160353Z 32001KT 00/03 A3009 RMK A01 T00000-34  RH  078%=      5-min Rain = 0
KBY1 160354Z 26000KT 00/03 A3009 RMK A01 T00-00-34  RH  078%=      5-min Rain = 0
KBY1 160355Z 26001KT M00/M03 A3009 RMK A01 T10011033  RH  079%=      5-min Rain = 0
KBY1 160356Z 28000KT 00/03 A3009 RMK A01 T00-00-32  RH  079%=      5-min Rain = 0
KBY1 160357Z 23001KT 00/03 A3009 RMK A01 T00-00-32  RH  079%=      5-min Rain = 0
KBY1 160358Z 25001KT M00/M03 A3009 RMK A01 T10011034  RH  079%=      5-min Rain = 0
KBY1 160359Z 30000KT M00/M04 A3009 RMK A01 T10031035  RH  079%=      5-min Rain = 0
KBY1 160400Z 35001KT M00/M03 A3009 RMK A01 T10031034  RH  080%=      5-min Rain = 0
KBY1 160401Z 00000KT M00/M03 A3009 RMK A01 T10041034  RH  080%=      5-min Rain = 0
KBY1 160402Z 00000KT M00/M04 A3009 RMK A01 T10041035  RH  080%=      5-min Rain = 0
KBY1 160403Z 00000KT M01/M04 A3009 RMK A01 T10051036  RH  079%=      5-min Rain = 0
KBY1 160404Z 21000KT M01/M04 A3009 RMK A01 T10071038  RH  079%=      5-min Rain = 0
KBY1 160405Z 21000KT M01/M04 A3009 RMK A01 T10091039  RH  080%=      5-min Rain = 0
KBY1 160406Z 00000KT M01/M04 A301 RMK A01 T10101038  RH  082%=      5-min Rain = 0
KBY1 160407Z 00000KT M01/M04 A301 RMK A01 T10111037  RH  082%=      5-min Rain = 0
KBY1 160408Z 00000KT M01/M04 A301 RMK A01 T10111035  RH  084%=      5-min Rain = 0
KBY1 160409Z 33000KT M01/M03 A3009 RMK A01 T10121034  RH  085%=      5-min Rain = 0
KBY1 160410Z 33000KT M01/M03 A3009 RMK A01 T10111032  RH  085%=      5-min Rain = 0
KBY1 160411Z 34001KT M01/M03 A301 RMK A01 T10071031  RH  084%=      5-min Rain = 0
KBY1 160412Z 34000KT M00/M03 A301 RMK A01 T10031031  RH  081%=      5-min Rain = 0
KBY1 160413Z 02000KT 00/M03 A301 RMK A01 T00021032  RH  078%=      5-min Rain = 0
KBY1 160414Z 01000KT 01/M03 A301 RMK A01 T00061034  RH  074%=      5-min Rain = 0
KBY1 160415Z 03000KT 01/M04 A301 RMK A01 T00081035  RH  073%=      5-min Rain = 0
KBY1 160416Z 00000KT 01/M03 A301 RMK A01 T00081034  RH  074%=      5-min Rain = 0
KBY1 160417Z 00000KT 01/M03 A301 RMK A01 T00071033  RH  074%=      5-min Rain = 0
KBY1 160418Z 01001KT 01/M04 A301 RMK A01 T00051035  RH  074%=      5-min Rain = 0
KBY1 160419Z 01000KT 01/M04 A301 RMK A01 T00051035  RH  074%=      5-min Rain = 0
KBY1 160420Z 34000KT 00/M04 A301 RMK A01 T00011038  RH  075%=      5-min Rain = 0
KBY1 160421Z 35001KT M00/M04 A301 RMK A01 T10021037  RH  077%=      5-min Rain = 0
KBY1 160422Z 34000KT M00/M04 A3009 RMK A01 T10021036  RH  078%=      5-min Rain = 0
KBY1 160423Z 35001KT M00/M04 A3009 RMK A01 T10021036  RH  078%=      5-min Rain = 0
KBY1 160424Z 00002KT M00/M04 A3009 RMK A01 T10021036  RH  078%=      5-min Rain = 0
KBY1 160425Z 02002KT 00/M03 A3009 RMK A01 T00021034  RH  077%=      5-min Rain = 0
KBY1 160426Z 02001KT 01/M03 A3009 RMK A01 T00051034  RH  075%=      5-min Rain = 0
KBY1 160427Z 35001KT 01/M03 A3009 RMK A01 T00051034  RH  075%=      5-min Rain = 0
KBY1 160428Z 03001KT 00/M03 A3009 RMK A01 T00031034  RH  076%=      5-min Rain = 0
KBY1 160429Z 02000KT 00/M04 A3009 RMK A01 T00011035  RH  077%=      5-min Rain = 0
KBY1 160430Z 35001KT M00/M04 A3009 RMK A01 T10031036  RH  078%=      5-min Rain = 0
KBY1 160431Z 34001KT M00/M04 A3009 RMK A01 T10041036  RH  079%=      5-min Rain = 0
KBY1 160432Z 32001KT M00/M04 A3009 RMK A01 T10041035  RH  080%=      5-min Rain = 0
KBY1 160433Z 34001KT M01/M04 A3009 RMK A01 T10051035  RH  080%=      5-min Rain = 0
KBY1 160434Z 00001KT M01/M03 A3009 RMK A01 T10051034  RH  080%=      5-min Rain = 0
KBY1 160435Z 35002KT M01/M04 A3009 RMK A01 T10051035  RH  080%=      5-min Rain = 0
KBY1 160436Z 34002KT M00/M03 A3009 RMK A01 T10011034  RH  079%=      5-min Rain = 0
KBY1 160437Z 32000KT 00/04 A3009 RMK A01 T00-00-37  RH  076%=      5-min Rain = 0
KBY1 160438Z 32002KT M00/M04 A3009 RMK A01 T10021040  RH  076%=      5-min Rain = 0
KBY1 160439Z 32000KT M00/M04 A3009 RMK A01 T10011038  RH  076%=      5-min Rain = 0
KBY1 160440Z 33001KT M00/M04 A3009 RMK A01 T10021041  RH  075%=      5-min Rain = 0
KBY1 160441Z 34001KT M00/M04 A3009 RMK A01 T10041041  RH  076%=      5-min Rain = 0
KBY1 160442Z 34000KT M01/M04 A3009 RMK A01 T10061042  RH  077%=      5-min Rain = 0
KBY1 160443Z 00000KT M01/M05 A3009 RMK A01 T10101047  RH  076%=      5-min Rain = 0
KBY1 160444Z 24000KT M01/M05 A3009 RMK A01 T10121045  RH  078%=      5-min Rain = 0
KBY1 160445Z 16000KT M01/M05 A3009 RMK A01 T10121045  RH  079%=      5-min Rain = 0
KBY1 160446Z 19002KT M01/M05 A3009 RMK A01 T10141046  RH  079%=      5-min Rain = 0
KBY1 160447Z 19001KT M02/M05 A3009 RMK A01 T10151046  RH  079%=      5-min Rain = 0
KBY1 160448Z 19002KT M02/M05 A3009 RMK A01 T10161047  RH  079%=      5-min Rain = 0
KBY1 160449Z 18001KT M02/M05 A3009 RMK A01 T10181049  RH  080%=      5-min Rain = 0
KBY1 160450Z 17001KT M02/M05 A3009 RMK A01 T10201048  RH  081%=      5-min Rain = 0
KBY1 160451Z 17000KT M02/M05 A3009 RMK A01 T10211047  RH  083%=      5-min Rain = 0
KBY1 160452Z 00000KT M02/M04 A3009 RMK A01 T10211044  RH  084%=      5-min Rain = 0
KBY1 160453Z 00000KT M02/M04 A3009 RMK A01 T10191041  RH  085%=      5-min Rain = 0
KBY1 160454Z 00000KT M02/M04 A3009 RMK A01 T10151038  RH  084%=      5-min Rain = 0
KBY1 160455Z 00000KT M01/M04 A3009 RMK A01 T10131039  RH  082%=      5-min Rain = 0
KBY1 160456Z 00000KT M01/M04 A3009 RMK A01 T10131041  RH  081%=      5-min Rain = 0
KBY1 160457Z 00000KT M02/M05 A3009 RMK A01 T10181048  RH  080%=      5-min Rain = 0
KBY1 160458Z 02000KT M02/M05 A3009 RMK A01 T10211050  RH  080%=      5-min Rain = 0
KBY1 160459Z 36001KT M02/M05 A3009 RMK A01 T10231050  RH  082%=      5-min Rain = 0
KBY1 160500Z 00001KT M02/M05 A3009 RMK A01 T10231048  RH  083%=      5-min Rain = 0
KBY1 160501Z 00000KT M03/M05 A3009 RMK A01 T10251049  RH  084%=      5-min Rain = 0
KBY1 160502Z 35001KT M03/M05 A3009 RMK A01 T10271050  RH  084%=      5-min Rain = 0
KBY1 160503Z 35001KT M03/M05 A3009 RMK A01 T10261047  RH  086%=      5-min Rain = 0
KBY1 160504Z 12001KT M03/M05 A3009 RMK A01 T10251046  RH  086%=      5-min Rain = 0
KBY1 160505Z 09001KT M03/M05 A3009 RMK A01 T10271049  RH  085%=      5-min Rain = 0
KBY1 160506Z 08001KT M03/M05 A3009 RMK A01 T10281050  RH  085%=      5-min Rain = 0
KBY1 160507Z 08001KT M03/M05 A3009 RMK A01 T10291050  RH  086%=      5-min Rain = 0
KBY1 160508Z 08001KT M03/M05 A3009 RMK A01 T10301049  RH  087%=      5-min Rain = 0
KBY1 160509Z 00000KT M03/M05 A3009 RMK A01 T10291048  RH  087%=      5-min Rain = 0
KBY1 160510Z 06001KT M03/M05 A3009 RMK A01 T10291047  RH  088%=      5-min Rain = 0
KBY1 160511Z 04001KT M03/M05 A3009 RMK A01 T10301047  RH  088%=      5-min Rain = 0
KBY1 160512Z 15001KT M03/M05 A3009 RMK A01 T10301046  RH  088%=      5-min Rain = 0
KBY1 160513Z 18001KT M03/M05 A3009 RMK A01 T10311047  RH  089%=      5-min Rain = 0
KBY1 160514Z 04000KT M03/M05 A3009 RMK A01 T10321047  RH  089%=      5-min Rain = 0
KBY1 160515Z 14000KT M03/M05 A3009 RMK A01 T10311046  RH  090%=      5-min Rain = 0
KBY1 160516Z 16001KT M03/M05 A3009 RMK A01 T10311045  RH  090%=      5-min Rain = 0
KBY1 160517Z 14001KT M03/M05 A3009 RMK A01 T10311046  RH  090%=      5-min Rain = 0
KBY1 160518Z 14000KT M03/M05 A3009 RMK A01 T10321047  RH  089%=      5-min Rain = 0
KBY1 160519Z 18000KT M03/M05 A3009 RMK A01 T10321047  RH  089%=      5-min Rain = 0
KBY1 160520Z 18001KT M03/M05 A3009 RMK A01 T10321047  RH  089%=      5-min Rain = 0
KBY1 160521Z 20001KT M03/M05 A3009 RMK A01 T10321048  RH  089%=      5-min Rain = 0
KBY1 160522Z 21001KT M03/M05 A3009 RMK A01 T10321048  RH  089%=      5-min Rain = 0
KBY1 160523Z 21001KT M03/M05 A3009 RMK A01 T10321048  RH  089%=      5-min Rain = 0
KBY1 160524Z 19001KT M03/M05 A3008 RMK A01 T10321047  RH  089%=      5-min Rain = 0
KBY1 160525Z 20001KT M03/M05 A3008 RMK A01 T10311046  RH  089%=      5-min Rain = 0
KBY1 160526Z 20001KT M03/M05 A3008 RMK A01 T10301045  RH  090%=      5-min Rain = 0
KBY1 160527Z 19001KT M03/M05 A3008 RMK A01 T10301045  RH  090%=      5-min Rain = 0
KBY1 160528Z 21001KT M03/M04 A3008 RMK A01 T10291044  RH  090%=      5-min Rain = 0
KBY1 160529Z 18001KT M03/M04 A3008 RMK A01 T10291043  RH  090%=      5-min Rain = 0
KBY1 160530Z 19000KT M03/M04 A3008 RMK A01 T10281043  RH  089%=      5-min Rain = 0
KBY1 160531Z 22000KT M03/M04 A3008 RMK A01 T10281044  RH  089%=      5-min Rain = 0
KBY1 160532Z 00000KT M03/M04 A3008 RMK A01 T10281044  RH  089%=      5-min Rain = 0
KBY1 160533Z 00000KT M03/M04 A3008 RMK A01 T10281043  RH  089%=      5-min Rain = 0
KBY1 160534Z 00000KT M03/M04 A3008 RMK A01 T10271043  RH  089%=      5-min Rain = 0
KBY1 160535Z 00000KT M03/M04 A3008 RMK A01 T10271043  RH  089%=      5-min Rain = 0
KBY1 160536Z 00000KT M03/M04 A3008 RMK A01 T10271043  RH  089%=      5-min Rain = 0
KBY1 160537Z 00000KT M03/M04 A3008 RMK A01 T10281043  RH  089%=      5-min Rain = 0
KBY1 160538Z 00000KT M03/M04 A3008 RMK A01 T10271043  RH  089%=      5-min Rain = 0
KBY1 160539Z 00000KT M03/M04 A3008 RMK A01 T10281043  RH  089%=      5-min Rain = 0
KBY1 160540Z 00000KT M03/M04 A3008 RMK A01 T10281043  RH  089%=      5-min Rain = 0
KBY1 160541Z 32000KT M03/M04 A3008 RMK A01 T10281043  RH  090%=      5-min Rain = 0
KBY1 160542Z 00000KT M03/M04 A3008 RMK A01 T10281042  RH  090%=      5-min Rain = 0
KBY1 160543Z 00000KT M03/M04 A3008 RMK A01 T10281041  RH  091%=      5-min Rain = 0
KBY1 160544Z 00000KT M03/M04 A3008 RMK A01 T10281041  RH  091%=      5-min Rain = 0
KBY1 160545Z 36000KT M03/M04 A3008 RMK A01 T10281041  RH  091%=      5-min Rain = 0
KBY1 160546Z 33000KT M03/M04 A3008 RMK A01 T10281041  RH  091%=      5-min Rain = 0
KBY1 160547Z 34000KT M03/M04 A3008 RMK A01 T10271041  RH  090%=      5-min Rain = 0
KBY1 160548Z 34000KT M03/M04 A3008 RMK A01 T10271041  RH  090%=      5-min Rain = 0
KBY1 160549Z 32002KT M03/M04 A3008 RMK A01 T10271041  RH  090%=      5-min Rain = 0
KBY1 160550Z 31003KT M03/M04 A3008 RMK A01 T10271041  RH  090%=      5-min Rain = 0
KBY1 160551Z 31002KT M03/M04 A3008 RMK A01 T10271041  RH  090%=      5-min Rain = 0
KBY1 160552Z 30003KT M03/M04 A3008 RMK A01 T10271040  RH  090%=      5-min Rain = 0
KBY1 160553Z 31003KT M03/M04 A3008 RMK A01 T10271041  RH  090%=      5-min Rain = 0
KBY1 160554Z 31003KT M03/M04 A3008 RMK A01 T10271042  RH  090%=      5-min Rain = 0
KBY1 160555Z 31003KT M03/M04 A3008 RMK A01 T10271042  RH  090%=      5-min Rain = 0
KBY1 160556Z 32001KT M03/M04 A3008 RMK A01 T10271043  RH  089%=      5-min Rain = 0
KBY1 160557Z 32000KT M03/M04 A3008 RMK A01 T10271044  RH  089%=      5-min Rain = 0
KBY1 160558Z 35000KT M03/M04 A3008 RMK A01 T10271044  RH  088%=      5-min Rain = 0
KBY1 160559Z 36000KT M03/M05 A3008 RMK A01 T10281045  RH  088%=      5-min Rain = 0

Page generated in 0.2129 seconds.